<?xml version="1.0" encoding="UTF-8" standalone="no" ?><gpx xmlns="http://www.topografix.com/GPX/1/1" xmlns:gpxx="http://www.garmin.com/xmlschemas/GpxExtensions/v3" xmlns:wptx1="http://www.garmin.com/xmlschemas/WaypointExtension/v1" xmlns:gpxtpx="http://www.garmin.com/xmlschemas/TrackPointExtension/v1" creator="Dakota 20" version="1.1" xmlns:xsi="http://www.w3.org/2001/XMLSchema-instance" xsi:schemaLocation="http://www.topografix.com/GPX/1/1 http://www.topografix.com/GPX/1/1/gpx.xsd http://www.garmin.com/xmlschemas/GpxExtensions/v3 http://www8.garmin.com/xmlschemas/GpxExtensionsv3.xsd http://www.garmin.com/xmlschemas/WaypointExtension/v1 http://www8.garmin.com/xmlschemas/WaypointExtensionv1.xsd http://www.garmin.com/xmlschemas/TrackPointExtension/v1 http://www.garmin.com/xmlschemas/TrackPointExtensionv1.xsd"><metadata><link href="http://www.garmin.com"><text>Garmin International</text></link><time>2015-11-18T16:24:10Z</time></metadata><trk><name>Current Track: 18 NOV 2015 09:56</name><extensions><gpxx:TrackExtension><gpxx:DisplayColor>Cyan</gpxx:DisplayColor></gpxx:TrackExtension></extensions><trkseg><trkpt lat="51.9492620789" lon="-2.1952061076"><ele>35.71</ele><time>2015-11-18T09:56:42Z</time></trkpt><trkpt lat="51.9492583908" lon="-2.1952045988"><ele>35.71</ele><time>2015-11-18T09:57:04Z</time></trkpt><trkpt lat="51.9492702093" lon="-2.1952606738"><ele>36.19</ele><time>2015-11-18T09:57:08Z</time></trkpt><trkpt lat="51.9492521882" lon="-2.1954423096"><ele>37.15</ele><time>2015-11-18T09:57:21Z</time></trkpt><trkpt lat="51.9491822831" lon="-2.1956735663"><ele>38.11</ele><time>2015-11-18T09:57:36Z</time></trkpt><trkpt lat="51.9491796847" lon="-2.1957211755"><ele>38.59</ele><time>2015-11-18T09:57:38Z</time></trkpt><trkpt lat="51.9491667766" lon="-2.1958008874"><ele>38.11</ele><time>2015-11-18T09:57:41Z</time></trkpt><trkpt lat="51.9490264636" lon="-2.1959628258"><ele>39.55</ele><time>2015-11-18T09:57:57Z</time></trkpt><trkpt lat="51.9490023237" lon="-2.1960300487"><ele>39.55</ele><time>2015-11-18T09:58:04Z</time></trkpt><trkpt lat="51.9490097836" lon="-2.1961386781"><ele>40.51</ele><time>2015-11-18T09:58:12Z</time></trkpt><trkpt lat="51.9490433950" lon="-2.1961673442"><ele>40.03</ele><time>2015-11-18T09:58:27Z</time></trkpt><trkpt lat="51.9490516093" lon="-2.1961743012"><ele>40.51</ele><time>2015-11-18T09:58:44Z</time></trkpt><trkpt lat="51.9490945246" lon="-2.1962448768"><ele>41.95</ele><time>2015-11-18T09:59:06Z</time></trkpt><trkpt lat="51.9491298124" lon="-2.1963364072"><ele>28.50</ele><time>2015-11-18T09:59:21Z</time></trkpt><trkpt lat="51.9491295610" lon="-2.1963377483"><ele>44.36</ele><time>2015-11-18T09:59:22Z</time></trkpt><trkpt lat="51.9491296448" lon="-2.1963395085"><ele>38.59</ele><time>2015-11-18T09:59:23Z</time></trkpt><trkpt lat="51.9491293933" lon="-2.1963409334"><ele>51.57</ele><time>2015-11-18T09:59:24Z</time></trkpt><trkpt lat="51.9491294771" lon="-2.1963423584"><ele>41.95</ele><time>2015-11-18T09:59:25Z</time></trkpt><trkpt lat="51.9491314050" lon="-2.1963562723"><ele>40.99</ele><time>2015-11-18T09:59:27Z</time></trkpt><trkpt lat="51.9492058363" lon="-2.1965533309"><ele>43.40</ele><time>2015-11-18T09:59:40Z</time></trkpt><trkpt lat="51.9492645096" lon="-2.1968822367"><ele>44.84</ele><time>2015-11-18T10:00:00Z</time></trkpt><trkpt lat="51.9493212551" lon="-2.1970601007"><ele>46.76</ele><time>2015-11-18T10:00:15Z</time></trkpt><trkpt lat="51.9493444730" lon="-2.1970993280"><ele>46.76</ele><time>2015-11-18T10:00:18Z</time></trkpt><trkpt lat="51.9494165573" lon="-2.1973966341"><ele>50.13</ele><time>2015-11-18T10:00:37Z</time></trkpt><trkpt lat="51.9493812695" lon="-2.1973123960"><ele>50.13</ele><time>2015-11-18T10:00:50Z</time></trkpt><trkpt lat="51.9494619034" lon="-2.1974410582"><ele>51.57</ele><time>2015-11-18T10:01:06Z</time></trkpt><trkpt lat="51.9495264441" lon="-2.1976543777"><ele>54.93</ele><time>2015-11-18T10:01:20Z</time></trkpt><trkpt lat="51.9495574571" lon="-2.1977548767"><ele>53.97</ele><time>2015-11-18T10:01:34Z</time></trkpt><trkpt lat="51.9495577924" lon="-2.1977530327"><ele>57.82</ele><time>2015-11-18T10:01:36Z</time></trkpt><trkpt lat="51.9495574571" lon="-2.1977521945"><ele>56.86</ele><time>2015-11-18T10:01:37Z</time></trkpt><trkpt lat="51.9495742209" lon="-2.1977381967"><ele>55.89</ele><time>2015-11-18T10:01:55Z</time></trkpt><trkpt lat="51.9495672639" lon="-2.1977379452"><ele>56.37</ele><time>2015-11-18T10:02:19Z</time></trkpt><trkpt lat="51.9496438745" lon="-2.1978228539"><ele>56.86</ele><time>2015-11-18T10:02:34Z</time></trkpt><trkpt lat="51.9496737979" lon="-2.1978783421"><ele>57.82</ele><time>2015-11-18T10:02:48Z</time></trkpt><trkpt lat="51.9496970158" lon="-2.1979039907"><ele>58.30</ele><time>2015-11-18T10:03:07Z</time></trkpt><trkpt lat="51.9497022964" lon="-2.1979039069"><ele>58.30</ele><time>2015-11-18T10:03:32Z</time></trkpt><trkpt lat="51.9497062359" lon="-2.1979075111"><ele>57.82</ele><time>2015-11-18T10:03:54Z</time></trkpt><trkpt lat="51.9497385900" lon="-2.1979435533"><ele>58.30</ele><time>2015-11-18T10:04:16Z</time></trkpt><trkpt lat="51.9498194754" lon="-2.1980805974"><ele>59.26</ele><time>2015-11-18T10:04:26Z</time></trkpt><trkpt lat="51.9498613011" lon="-2.1981310565"><ele>58.30</ele><time>2015-11-18T10:04:30Z</time></trkpt><trkpt lat="51.9499334693" lon="-2.1983385086"><ele>59.26</ele><time>2015-11-18T10:04:44Z</time></trkpt><trkpt lat="51.9500700105" lon="-2.1986223198"><ele>59.74</ele><time>2015-11-18T10:05:04Z</time></trkpt><trkpt lat="51.9500881992" lon="-2.1986835077"><ele>60.70</ele><time>2015-11-18T10:05:18Z</time></trkpt><trkpt lat="51.9500837568" lon="-2.1987218130"><ele>60.70</ele><time>2015-11-18T10:05:22Z</time></trkpt><trkpt lat="51.9501695037" lon="-2.1990409121"><ele>59.26</ele><time>2015-11-18T10:05:41Z</time></trkpt><trkpt lat="51.9502270874" lon="-2.1993173473"><ele>59.74</ele><time>2015-11-18T10:05:57Z</time></trkpt><trkpt lat="51.9502905384" lon="-2.1996240411"><ele>60.22</ele><time>2015-11-18T10:06:15Z</time></trkpt><trkpt lat="51.9503776263" lon="-2.1999851335"><ele>59.26</ele><time>2015-11-18T10:06:35Z</time></trkpt><trkpt lat="51.9503741898" lon="-2.2000072617"><ele>61.66</ele><time>2015-11-18T10:06:40Z</time></trkpt><trkpt lat="51.9503865112" lon="-2.2000064235"><ele>58.30</ele><time>2015-11-18T10:06:51Z</time></trkpt><trkpt lat="51.9503823202" lon="-2.2000181582"><ele>61.66</ele><time>2015-11-18T10:06:55Z</time></trkpt><trkpt lat="51.9503860082" lon="-2.2000132129"><ele>58.78</ele><time>2015-11-18T10:07:11Z</time></trkpt><trkpt lat="51.9503861759" lon="-2.2000135481"><ele>59.26</ele><time>2015-11-18T10:07:12Z</time></trkpt><trkpt lat="51.9503851701" lon="-2.2000155598"><ele>60.22</ele><time>2015-11-18T10:07:40Z</time></trkpt><trkpt lat="51.9503952283" lon="-2.2000328265"><ele>61.66</ele><time>2015-11-18T10:07:51Z</time></trkpt><trkpt lat="51.9504008442" lon="-2.2000558767"><ele>60.22</ele><time>2015-11-18T10:07:54Z</time></trkpt><trkpt lat="51.9504796341" lon="-2.2002238501"><ele>59.74</ele><time>2015-11-18T10:08:07Z</time></trkpt><trkpt lat="51.9505141675" lon="-2.2003306355"><ele>55.89</ele><time>2015-11-18T10:08:20Z</time></trkpt><trkpt lat="51.9505386427" lon="-2.2004389297"><ele>55.89</ele><time>2015-11-18T10:08:26Z</time></trkpt><trkpt lat="51.9505500421" lon="-2.2005350702"><ele>57.34</ele><time>2015-11-18T10:08:30Z</time></trkpt><trkpt lat="51.9506129064" lon="-2.2007811628"><ele>55.41</ele><time>2015-11-18T10:08:44Z</time></trkpt><trkpt lat="51.9506400637" lon="-2.2008946538"><ele>56.86</ele><time>2015-11-18T10:08:51Z</time></trkpt><trkpt lat="51.9506521337" lon="-2.2009420954"><ele>55.41</ele><time>2015-11-18T10:08:54Z</time></trkpt><trkpt lat="51.9507547282" lon="-2.2011778783"><ele>56.86</ele><time>2015-11-18T10:09:09Z</time></trkpt><trkpt lat="51.9507820532" lon="-2.2012474481"><ele>56.86</ele><time>2015-11-18T10:09:24Z</time></trkpt><trkpt lat="51.9508314226" lon="-2.2012913693"><ele>57.34</ele><time>2015-11-18T10:09:38Z</time></trkpt><trkpt lat="51.9509127270" lon="-2.2014091350"><ele>56.86</ele><time>2015-11-18T10:09:53Z</time></trkpt><trkpt lat="51.9509104639" lon="-2.2014692333"><ele>58.30</ele><time>2015-11-18T10:10:00Z</time></trkpt><trkpt lat="51.9508954603" lon="-2.2016042657"><ele>56.37</ele><time>2015-11-18T10:10:19Z</time></trkpt><trkpt lat="51.9509371184" lon="-2.2017472610"><ele>56.86</ele><time>2015-11-18T10:10:36Z</time></trkpt><trkpt lat="51.9509494398" lon="-2.2019149829"><ele>55.89</ele><time>2015-11-18T10:10:52Z</time></trkpt><trkpt lat="51.9509739149" lon="-2.2020496801"><ele>55.89</ele><time>2015-11-18T10:11:10Z</time></trkpt><trkpt lat="51.9510117173" lon="-2.2022671066"><ele>54.93</ele><time>2015-11-18T10:11:24Z</time></trkpt><trkpt lat="51.9511175808" lon="-2.2023827769"><ele>53.97</ele><time>2015-11-18T10:11:45Z</time></trkpt><trkpt lat="51.9511030801" lon="-2.2023815196"><ele>53.49</ele><time>2015-11-18T10:12:08Z</time></trkpt><trkpt lat="51.9511021581" lon="-2.2023773286"><ele>54.45</ele><time>2015-11-18T10:12:16Z</time></trkpt><trkpt lat="51.9511113781" lon="-2.2023552004"><ele>53.01</ele><time>2015-11-18T10:12:39Z</time></trkpt><trkpt lat="51.9512759149" lon="-2.2023936734"><ele>53.97</ele><time>2015-11-18T10:12:57Z</time></trkpt><trkpt lat="51.9514694531" lon="-2.2024471499"><ele>53.97</ele><time>2015-11-18T10:13:17Z</time></trkpt><trkpt lat="51.9515725505" lon="-2.2024659254"><ele>53.01</ele><time>2015-11-18T10:13:28Z</time></trkpt><trkpt lat="51.9517843612" lon="-2.2025261074"><ele>53.97</ele><time>2015-11-18T10:13:49Z</time></trkpt><trkpt lat="51.9518794958" lon="-2.2026479803"><ele>53.97</ele><time>2015-11-18T10:14:04Z</time></trkpt><trkpt lat="51.9519170467" lon="-2.2028945759"><ele>53.01</ele><time>2015-11-18T10:14:20Z</time></trkpt><trkpt lat="51.9519560225" lon="-2.2031938937"><ele>53.97</ele><time>2015-11-18T10:14:37Z</time></trkpt><trkpt lat="51.9519460481" lon="-2.2034131642"><ele>54.45</ele><time>2015-11-18T10:14:54Z</time></trkpt><trkpt lat="51.9519554358" lon="-2.2033828218"><ele>53.97</ele><time>2015-11-18T10:15:12Z</time></trkpt><trkpt lat="51.9519474730" lon="-2.2034443449"><ele>53.49</ele><time>2015-11-18T10:15:24Z</time></trkpt><trkpt lat="51.9519670866" lon="-2.2034974024"><ele>53.01</ele><time>2015-11-18T10:15:28Z</time></trkpt><trkpt lat="51.9519882929" lon="-2.2035786230"><ele>52.53</ele><time>2015-11-18T10:15:32Z</time></trkpt><trkpt lat="51.9520009495" lon="-2.2036837321"><ele>52.53</ele><time>2015-11-18T10:15:36Z</time></trkpt><trkpt lat="51.9520131033" lon="-2.2039248794"><ele>53.49</ele><time>2015-11-18T10:15:47Z</time></trkpt><trkpt lat="51.9520295318" lon="-2.2041741572"><ele>53.01</ele><time>2015-11-18T10:16:00Z</time></trkpt><trkpt lat="51.9520245865" lon="-2.2042116243"><ele>53.01</ele><time>2015-11-18T10:16:02Z</time></trkpt><trkpt lat="51.9520203117" lon="-2.2042451520"><ele>52.05</ele><time>2015-11-18T10:16:04Z</time></trkpt><trkpt lat="51.9520168751" lon="-2.2045085113"><ele>53.49</ele><time>2015-11-18T10:16:19Z</time></trkpt><trkpt lat="51.9520150311" lon="-2.2047284525"><ele>51.57</ele><time>2015-11-18T10:16:32Z</time></trkpt><trkpt lat="51.9520186353" lon="-2.2048602998"><ele>50.61</ele><time>2015-11-18T10:16:41Z</time></trkpt><trkpt lat="51.9520027936" lon="-2.2051255032"><ele>50.13</ele><time>2015-11-18T10:16:55Z</time></trkpt><trkpt lat="51.9519975130" lon="-2.2052340489"><ele>48.68</ele><time>2015-11-18T10:17:10Z</time></trkpt><trkpt lat="51.9520082418" lon="-2.2052818257"><ele>50.13</ele><time>2015-11-18T10:17:23Z</time></trkpt><trkpt lat="51.9519934896" lon="-2.2053812351"><ele>48.68</ele><time>2015-11-18T10:17:41Z</time></trkpt><trkpt lat="51.9519903883" lon="-2.2053856775"><ele>49.16</ele><time>2015-11-18T10:17:59Z</time></trkpt><trkpt lat="51.9520018715" lon="-2.2053967416"><ele>48.68</ele><time>2015-11-18T10:18:14Z</time></trkpt><trkpt lat="51.9520011172" lon="-2.2054042015"><ele>48.68</ele><time>2015-11-18T10:18:32Z</time></trkpt><trkpt lat="51.9519965909" lon="-2.2053898685"><ele>48.20</ele><time>2015-11-18T10:18:56Z</time></trkpt><trkpt lat="51.9519975968" lon="-2.2053984180"><ele>47.72</ele><time>2015-11-18T10:19:00Z</time></trkpt><trkpt lat="51.9520219881" lon="-2.2054654732"><ele>47.72</ele><time>2015-11-18T10:19:04Z</time></trkpt><trkpt lat="51.9520789851" lon="-2.2057135776"><ele>43.88</ele><time>2015-11-18T10:19:13Z</time></trkpt><trkpt lat="51.9521167874" lon="-2.2058984824"><ele>40.99</ele><time>2015-11-18T10:19:20Z</time></trkpt><trkpt lat="51.9521257561" lon="-2.2060273122"><ele>38.11</ele><time>2015-11-18T10:19:25Z</time></trkpt><trkpt lat="51.9521266781" lon="-2.2060449980"><ele>37.63</ele><time>2015-11-18T10:19:26Z</time></trkpt><trkpt lat="51.9521597028" lon="-2.2062584851"><ele>34.74</ele><time>2015-11-18T10:19:38Z</time></trkpt><trkpt lat="51.9522005226" lon="-2.2063651029"><ele>32.82</ele><time>2015-11-18T10:19:51Z</time></trkpt><trkpt lat="51.9522043783" lon="-2.2064652666"><ele>32.82</ele><time>2015-11-18T10:20:04Z</time></trkpt><trkpt lat="51.9522029534" lon="-2.2065030690"><ele>30.42</ele><time>2015-11-18T10:20:15Z</time></trkpt><trkpt lat="51.9522221480" lon="-2.2066044901"><ele>31.38</ele><time>2015-11-18T10:20:21Z</time></trkpt><trkpt lat="51.9522605371" lon="-2.2069234215"><ele>28.98</ele><time>2015-11-18T10:20:39Z</time></trkpt><trkpt lat="51.9522652309" lon="-2.2071206477"><ele>28.02</ele><time>2015-11-18T10:20:54Z</time></trkpt><trkpt lat="51.9522560108" lon="-2.2071882058"><ele>27.53</ele><time>2015-11-18T10:20:59Z</time></trkpt><trkpt lat="51.9522387441" lon="-2.2072697617"><ele>27.53</ele><time>2015-11-18T10:21:04Z</time></trkpt><trkpt lat="51.9522430189" lon="-2.2074482124"><ele>27.05</ele><time>2015-11-18T10:21:17Z</time></trkpt><trkpt lat="51.9522513170" lon="-2.2074840032"><ele>26.57</ele><time>2015-11-18T10:21:34Z</time></trkpt><trkpt lat="51.9522498921" lon="-2.2075211350"><ele>25.61</ele><time>2015-11-18T10:21:54Z</time></trkpt><trkpt lat="51.9522519875" lon="-2.2075239010"><ele>25.61</ele><time>2015-11-18T10:22:16Z</time></trkpt><trkpt lat="51.9522488862" lon="-2.2076158505"><ele>25.61</ele><time>2015-11-18T10:22:22Z</time></trkpt><trkpt lat="51.9522089884" lon="-2.2079268191"><ele>24.65</ele><time>2015-11-18T10:22:39Z</time></trkpt><trkpt lat="51.9522253331" lon="-2.2080009989"><ele>25.13</ele><time>2015-11-18T10:22:45Z</time></trkpt><trkpt lat="51.9522293564" lon="-2.2080429923"><ele>24.65</ele><time>2015-11-18T10:22:48Z</time></trkpt><trkpt lat="51.9522496406" lon="-2.2082511149"><ele>23.21</ele><time>2015-11-18T10:23:01Z</time></trkpt><trkpt lat="51.9522468746" lon="-2.2082914319"><ele>22.73</ele><time>2015-11-18T10:23:06Z</time></trkpt><trkpt lat="51.9522710145" lon="-2.2085215990"><ele>21.77</ele><time>2015-11-18T10:23:21Z</time></trkpt><trkpt lat="51.9522348046" lon="-2.2085780092"><ele>22.73</ele><time>2015-11-18T10:23:33Z</time></trkpt><trkpt lat="51.9522398338" lon="-2.2085904982"><ele>21.77</ele><time>2015-11-18T10:23:54Z</time></trkpt><trkpt lat="51.9522430189" lon="-2.2086694557"><ele>21.77</ele><time>2015-11-18T10:24:08Z</time></trkpt><trkpt lat="51.9522390794" lon="-2.2087654285"><ele>21.29</ele><time>2015-11-18T10:24:21Z</time></trkpt><trkpt lat="51.9522602856" lon="-2.2088603117"><ele>21.29</ele><time>2015-11-18T10:24:26Z</time></trkpt><trkpt lat="51.9523329567" lon="-2.2091577854"><ele>19.36</ele><time>2015-11-18T10:24:42Z</time></trkpt><trkpt lat="51.9524213858" lon="-2.2095011920"><ele>20.32</ele><time>2015-11-18T10:25:00Z</time></trkpt><trkpt lat="51.9524935540" lon="-2.2097130027"><ele>19.36</ele><time>2015-11-18T10:25:16Z</time></trkpt><trkpt lat="51.9525271654" lon="-2.2098516393"><ele>19.84</ele><time>2015-11-18T10:25:24Z</time></trkpt><trkpt lat="51.9525751099" lon="-2.2101832274"><ele>19.36</ele><time>2015-11-18T10:25:39Z</time></trkpt><trkpt lat="51.9526155107" lon="-2.2104576509"><ele>18.40</ele><time>2015-11-18T10:25:54Z</time></trkpt><trkpt lat="51.9526196178" lon="-2.2105402127"><ele>17.92</ele><time>2015-11-18T10:26:08Z</time></trkpt><trkpt lat="51.9526174385" lon="-2.2105948627"><ele>18.40</ele><time>2015-11-18T10:26:32Z</time></trkpt><trkpt lat="51.9526371360" lon="-2.2106074356"><ele>17.44</ele><time>2015-11-18T10:26:41Z</time></trkpt><trkpt lat="51.9528002478" lon="-2.2107376903"><ele>16.48</ele><time>2015-11-18T10:26:57Z</time></trkpt><trkpt lat="51.9529424049" lon="-2.2109685279"><ele>16.96</ele><time>2015-11-18T10:27:13Z</time></trkpt><trkpt lat="51.9530841429" lon="-2.2111698613"><ele>16.48</ele><time>2015-11-18T10:27:30Z</time></trkpt><trkpt lat="51.9531955384" lon="-2.2113160416"><ele>16.48</ele><time>2015-11-18T10:27:46Z</time></trkpt><trkpt lat="51.9532985520" lon="-2.2115390841"><ele>16.48</ele><time>2015-11-18T10:28:02Z</time></trkpt><trkpt lat="51.9533758331" lon="-2.2116448637"><ele>16.00</ele><time>2015-11-18T10:28:16Z</time></trkpt><trkpt lat="51.9533811137" lon="-2.2116551735"><ele>16.00</ele><time>2015-11-18T10:28:32Z</time></trkpt><trkpt lat="51.9533775095" lon="-2.2116554249"><ele>15.04</ele><time>2015-11-18T10:28:43Z</time></trkpt><trkpt lat="51.9533652719" lon="-2.2117648087"><ele>15.04</ele><time>2015-11-18T10:28:56Z</time></trkpt><trkpt lat="51.9533507712" lon="-2.2118080594"><ele>16.00</ele><time>2015-11-18T10:28:59Z</time></trkpt><trkpt lat="51.9533288945" lon="-2.2118534055"><ele>15.52</ele><time>2015-11-18T10:29:02Z</time></trkpt><trkpt lat="51.9533158187" lon="-2.2120039444"><ele>14.56</ele><time>2015-11-18T10:29:12Z</time></trkpt><trkpt lat="51.9533335045" lon="-2.2122588381"><ele>15.04</ele><time>2015-11-18T10:29:25Z</time></trkpt><trkpt lat="51.9533749111" lon="-2.2125625983"><ele>15.04</ele><time>2015-11-18T10:29:42Z</time></trkpt><trkpt lat="51.9533807784" lon="-2.2125803679"><ele>16.96</ele><time>2015-11-18T10:29:45Z</time></trkpt><trkpt lat="51.9532634318" lon="-2.2126011550"><ele>16.96</ele><time>2015-11-18T10:30:02Z</time></trkpt><trkpt lat="51.9532102067" lon="-2.2126097046"><ele>15.04</ele><time>2015-11-18T10:30:18Z</time></trkpt><trkpt lat="51.9530821312" lon="-2.2127037495"><ele>16.00</ele><time>2015-11-18T10:30:34Z</time></trkpt><trkpt lat="51.9530190993" lon="-2.2127559688"><ele>15.04</ele><time>2015-11-18T10:30:47Z</time></trkpt><trkpt lat="51.9528864976" lon="-2.2128176596"><ele>16.00</ele><time>2015-11-18T10:31:01Z</time></trkpt><trkpt lat="51.9528161734" lon="-2.2128868103"><ele>16.48</ele><time>2015-11-18T10:31:12Z</time></trkpt><trkpt lat="51.9527874235" lon="-2.2129018977"><ele>13.60</ele><time>2015-11-18T10:31:16Z</time></trkpt><trkpt lat="51.9527781196" lon="-2.2129034903"><ele>13.60</ele><time>2015-11-18T10:31:17Z</time></trkpt><trkpt lat="51.9527134951" lon="-2.2129472438"><ele>13.12</ele><time>2015-11-18T10:31:30Z</time></trkpt><trkpt lat="51.9527015090" lon="-2.2129787598"><ele>14.08</ele><time>2015-11-18T10:31:34Z</time></trkpt><trkpt lat="51.9526917022" lon="-2.2129908297"><ele>14.08</ele><time>2015-11-18T10:32:00Z</time></trkpt><trkpt lat="51.9526914507" lon="-2.2129919194"><ele>13.12</ele><time>2015-11-18T10:32:26Z</time></trkpt><trkpt lat="51.9526858348" lon="-2.2129878122"><ele>12.63</ele><time>2015-11-18T10:32:49Z</time></trkpt><trkpt lat="51.9526731782" lon="-2.2130233515"><ele>11.19</ele><time>2015-11-18T10:33:12Z</time></trkpt><trkpt lat="51.9526594318" lon="-2.2130313981"><ele>12.15</ele><time>2015-11-18T10:33:14Z</time></trkpt><trkpt lat="51.9526379742" lon="-2.2130378522"><ele>12.15</ele><time>2015-11-18T10:33:16Z</time></trkpt><trkpt lat="51.9525730144" lon="-2.2131002974"><ele>12.63</ele><time>2015-11-18T10:33:24Z</time></trkpt><trkpt lat="51.9524834119" lon="-2.2131288797"><ele>12.63</ele><time>2015-11-18T10:33:33Z</time></trkpt><trkpt lat="51.9524620380" lon="-2.2131412849"><ele>12.63</ele><time>2015-11-18T10:33:35Z</time></trkpt><trkpt lat="51.9523416739" lon="-2.2132473160"><ele>11.19</ele><time>2015-11-18T10:33:50Z</time></trkpt><trkpt lat="51.9522715174" lon="-2.2132781614"><ele>8.79</ele><time>2015-11-18T10:33:57Z</time></trkpt><trkpt lat="51.9522365648" lon="-2.2132922430"><ele>9.75</ele><time>2015-11-18T10:34:00Z</time></trkpt><trkpt lat="51.9520843495" lon="-2.2132894769"><ele>13.60</ele><time>2015-11-18T10:34:13Z</time></trkpt><trkpt lat="51.9520417694" lon="-2.2132902313"><ele>10.23</ele><time>2015-11-18T10:34:17Z</time></trkpt><trkpt lat="51.9520335551" lon="-2.2132923268"><ele>14.08</ele><time>2015-11-18T10:34:18Z</time></trkpt><trkpt lat="51.9520140253" lon="-2.2132971883"><ele>10.71</ele><time>2015-11-18T10:34:21Z</time></trkpt><trkpt lat="51.9520020392" lon="-2.2132992838"><ele>11.67</ele><time>2015-11-18T10:34:22Z</time></trkpt><trkpt lat="51.9519717805" lon="-2.2132961825"><ele>13.12</ele><time>2015-11-18T10:34:25Z</time></trkpt><trkpt lat="51.9519374985" lon="-2.2132768203"><ele>15.04</ele><time>2015-11-18T10:34:28Z</time></trkpt><trkpt lat="51.9519245904" lon="-2.2132750601"><ele>12.15</ele><time>2015-11-18T10:34:29Z</time></trkpt><trkpt lat="51.9519167114" lon="-2.2132799216"><ele>12.63</ele><time>2015-11-18T10:34:30Z</time></trkpt><trkpt lat="51.9519051444" lon="-2.2132829390"><ele>13.60</ele><time>2015-11-18T10:34:32Z</time></trkpt><trkpt lat="51.9517125282" lon="-2.2132204100"><ele>10.71</ele><time>2015-11-18T10:34:48Z</time></trkpt><trkpt lat="51.9516230095" lon="-2.2131847870"><ele>12.63</ele><time>2015-11-18T10:34:55Z</time></trkpt><trkpt lat="51.9514560420" lon="-2.2131514270"><ele>11.19</ele><time>2015-11-18T10:35:09Z</time></trkpt><trkpt lat="51.9512785971" lon="-2.2131562885"><ele>10.71</ele><time>2015-11-18T10:35:25Z</time></trkpt><trkpt lat="51.9511526171" lon="-2.2131792549"><ele>10.71</ele><time>2015-11-18T10:35:37Z</time></trkpt><trkpt lat="51.9510818738" lon="-2.2131267004"><ele>10.23</ele><time>2015-11-18T10:35:44Z</time></trkpt><trkpt lat="51.9509827998" lon="-2.2129707132"><ele>10.71</ele><time>2015-11-18T10:35:58Z</time></trkpt><trkpt lat="51.9509210251" lon="-2.2128347587"><ele>11.19</ele><time>2015-11-18T10:36:12Z</time></trkpt><trkpt lat="51.9509213604" lon="-2.2128267959"><ele>11.19</ele><time>2015-11-18T10:36:29Z</time></trkpt><trkpt lat="51.9508798700" lon="-2.2127713915"><ele>10.23</ele><time>2015-11-18T10:36:50Z</time></trkpt><trkpt lat="51.9508389663" lon="-2.2126968764"><ele>11.19</ele><time>2015-11-18T10:37:03Z</time></trkpt><trkpt lat="51.9508009125" lon="-2.2126250435"><ele>11.19</ele><time>2015-11-18T10:37:08Z</time></trkpt><trkpt lat="51.9506770279" lon="-2.2123587504"><ele>12.15</ele><time>2015-11-18T10:37:23Z</time></trkpt><trkpt lat="51.9505835697" lon="-2.2121805511"><ele>14.56</ele><time>2015-11-18T10:37:39Z</time></trkpt><trkpt lat="51.9504727609" lon="-2.2120057046"><ele>16.00</ele><time>2015-11-18T10:37:55Z</time></trkpt><trkpt lat="51.9504182786" lon="-2.2119657230"><ele>16.48</ele><time>2015-11-18T10:38:06Z</time></trkpt><trkpt lat="51.9503819011" lon="-2.2119150124"><ele>18.40</ele><time>2015-11-18T10:38:10Z</time></trkpt><trkpt lat="51.9502599444" lon="-2.2117538285"><ele>19.84</ele><time>2015-11-18T10:38:24Z</time></trkpt><trkpt lat="51.9502449408" lon="-2.2117445245"><ele>21.77</ele><time>2015-11-18T10:38:31Z</time></trkpt><trkpt lat="51.9502479583" lon="-2.2117524035"><ele>20.81</ele><time>2015-11-18T10:38:44Z</time></trkpt><trkpt lat="51.9502342120" lon="-2.2117288504"><ele>21.77</ele><time>2015-11-18T10:38:46Z</time></trkpt><trkpt lat="51.9501235709" lon="-2.2115419339"><ele>24.65</ele><time>2015-11-18T10:39:03Z</time></trkpt><trkpt lat="51.9500208087" lon="-2.2113692667"><ele>26.57</ele><time>2015-11-18T10:39:21Z</time></trkpt><trkpt lat="51.9499379117" lon="-2.2112879623"><ele>27.53</ele><time>2015-11-18T10:39:33Z</time></trkpt><trkpt lat="51.9499405101" lon="-2.2112850286"><ele>27.05</ele><time>2015-11-18T10:39:49Z</time></trkpt><trkpt lat="51.9499428570" lon="-2.2112910636"><ele>27.53</ele><time>2015-11-18T10:40:11Z</time></trkpt><trkpt lat="51.9499377441" lon="-2.2112897225"><ele>26.57</ele><time>2015-11-18T10:40:20Z</time></trkpt><trkpt lat="51.9499143586" lon="-2.2112579551"><ele>28.50</ele><time>2015-11-18T10:40:24Z</time></trkpt><trkpt lat="51.9497696869" lon="-2.2110702004"><ele>30.90</ele><time>2015-11-18T10:40:41Z</time></trkpt><trkpt lat="51.9497290347" lon="-2.2110036481"><ele>32.82</ele><time>2015-11-18T10:40:47Z</time></trkpt><trkpt lat="51.9496385939" lon="-2.2108318191"><ele>34.26</ele><time>2015-11-18T10:41:06Z</time></trkpt><trkpt lat="51.9496608060" lon="-2.2108303104"><ele>34.74</ele><time>2015-11-18T10:41:27Z</time></trkpt><trkpt lat="51.9495354127" lon="-2.2107858863"><ele>34.74</ele><time>2015-11-18T10:41:38Z</time></trkpt><trkpt lat="51.9494728837" lon="-2.2107760794"><ele>37.15</ele><time>2015-11-18T10:41:46Z</time></trkpt><trkpt lat="51.9493389409" lon="-2.2107091919"><ele>37.15</ele><time>2015-11-18T10:42:03Z</time></trkpt><trkpt lat="51.9493408687" lon="-2.2107118741"><ele>39.07</ele><time>2015-11-18T10:42:08Z</time></trkpt><trkpt lat="51.9493396115" lon="-2.2107097786"><ele>38.11</ele><time>2015-11-18T10:42:10Z</time></trkpt><trkpt lat="51.9492762443" lon="-2.2106798552"><ele>40.03</ele><time>2015-11-18T10:42:20Z</time></trkpt><trkpt lat="51.9491645135" lon="-2.2105798591"><ele>39.55</ele><time>2015-11-18T10:42:34Z</time></trkpt><trkpt lat="51.9491446484" lon="-2.2105609998"><ele>41.47</ele><time>2015-11-18T10:42:37Z</time></trkpt><trkpt lat="51.9490262121" lon="-2.2105688788"><ele>41.47</ele><time>2015-11-18T10:42:51Z</time></trkpt><trkpt lat="51.9490371086" lon="-2.2105950303"><ele>41.47</ele><time>2015-11-18T10:43:17Z</time></trkpt><trkpt lat="51.9490305707" lon="-2.2105951142"><ele>41.95</ele><time>2015-11-18T10:43:30Z</time></trkpt><trkpt lat="51.9490040001" lon="-2.2106251214"><ele>40.99</ele><time>2015-11-18T10:43:47Z</time></trkpt><trkpt lat="51.9490106218" lon="-2.2105817869"><ele>42.44</ele><time>2015-11-18T10:44:10Z</time></trkpt><trkpt lat="51.9490116276" lon="-2.2105821222"><ele>40.51</ele><time>2015-11-18T10:44:28Z</time></trkpt><trkpt lat="51.9490071014" lon="-2.2105831280"><ele>42.44</ele><time>2015-11-18T10:44:30Z</time></trkpt><trkpt lat="51.9490045868" lon="-2.2105843015"><ele>40.99</ele><time>2015-11-18T10:44:32Z</time></trkpt><trkpt lat="51.9489427283" lon="-2.2106003948"><ele>43.40</ele><time>2015-11-18T10:44:39Z</time></trkpt><trkpt lat="51.9488840550" lon="-2.2106233612"><ele>41.47</ele><time>2015-11-18T10:44:44Z</time></trkpt><trkpt lat="51.9488181733" lon="-2.2106071841"><ele>42.92</ele><time>2015-11-18T10:44:57Z</time></trkpt><trkpt lat="51.9487470109" lon="-2.2105883248"><ele>43.40</ele><time>2015-11-18T10:45:12Z</time></trkpt><trkpt lat="51.9486942049" lon="-2.2105915099"><ele>42.92</ele><time>2015-11-18T10:45:20Z</time></trkpt><trkpt lat="51.9486149121" lon="-2.2106868960"><ele>43.88</ele><time>2015-11-18T10:45:34Z</time></trkpt><trkpt lat="51.9486087933" lon="-2.2107017320"><ele>44.36</ele><time>2015-11-18T10:45:53Z</time></trkpt><trkpt lat="51.9486108888" lon="-2.2107019834"><ele>43.40</ele><time>2015-11-18T10:46:09Z</time></trkpt><trkpt lat="51.9485604297" lon="-2.2107386962"><ele>44.36</ele><time>2015-11-18T10:46:37Z</time></trkpt><trkpt lat="51.9484738447" lon="-2.2107277159"><ele>44.84</ele><time>2015-11-18T10:46:50Z</time></trkpt><trkpt lat="51.9484309293" lon="-2.2107143048"><ele>45.80</ele><time>2015-11-18T10:47:06Z</time></trkpt><trkpt lat="51.9484259002" lon="-2.2107186634"><ele>45.32</ele><time>2015-11-18T10:47:30Z</time></trkpt><trkpt lat="51.9484222960" lon="-2.2107143886"><ele>44.36</ele><time>2015-11-18T10:47:47Z</time></trkpt><trkpt lat="51.9483906962" lon="-2.2107430547"><ele>46.28</ele><time>2015-11-18T10:47:54Z</time></trkpt><trkpt lat="51.9483595155" lon="-2.2107352596"><ele>45.32</ele><time>2015-11-18T10:48:16Z</time></trkpt><trkpt lat="51.9483465236" lon="-2.2107353434"><ele>45.32</ele><time>2015-11-18T10:48:17Z</time></trkpt><trkpt lat="51.9483027700" lon="-2.2107273806"><ele>44.84</ele><time>2015-11-18T10:48:20Z</time></trkpt><trkpt lat="51.9482038636" lon="-2.2107315715"><ele>42.92</ele><time>2015-11-18T10:48:30Z</time></trkpt><trkpt lat="51.9481748622" lon="-2.2107211780"><ele>45.32</ele><time>2015-11-18T10:48:33Z</time></trkpt><trkpt lat="51.9481591042" lon="-2.2107282188"><ele>42.44</ele><time>2015-11-18T10:48:37Z</time></trkpt><trkpt lat="51.9481244870" lon="-2.2107287217"><ele>46.76</ele><time>2015-11-18T10:48:41Z</time></trkpt><trkpt lat="51.9481174462" lon="-2.2107263748"><ele>46.28</ele><time>2015-11-18T10:48:42Z</time></trkpt><trkpt lat="51.9481041189" lon="-2.2107223514"><ele>44.84</ele><time>2015-11-18T10:48:45Z</time></trkpt><trkpt lat="51.9480413385" lon="-2.2107438091"><ele>44.84</ele><time>2015-11-18T10:48:53Z</time></trkpt><trkpt lat="51.9479099941" lon="-2.2107643448"><ele>44.36</ele><time>2015-11-18T10:49:07Z</time></trkpt><trkpt lat="51.9478956610" lon="-2.2108302265"><ele>44.36</ele><time>2015-11-18T10:49:21Z</time></trkpt><trkpt lat="51.9478946552" lon="-2.2108465713"><ele>43.40</ele><time>2015-11-18T10:49:31Z</time></trkpt><trkpt lat="51.9479159452" lon="-2.2109841183"><ele>42.44</ele><time>2015-11-18T10:49:43Z</time></trkpt><trkpt lat="51.9478800707" lon="-2.2112982720"><ele>42.92</ele><time>2015-11-18T10:50:00Z</time></trkpt><trkpt lat="51.9478704315" lon="-2.2113411035"><ele>41.95</ele><time>2015-11-18T10:50:20Z</time></trkpt><trkpt lat="51.9478805736" lon="-2.2113494016"><ele>41.95</ele><time>2015-11-18T10:50:35Z</time></trkpt><trkpt lat="51.9478385802" lon="-2.2112976015"><ele>41.95</ele><time>2015-11-18T10:50:49Z</time></trkpt><trkpt lat="51.9478432741" lon="-2.2113240883"><ele>42.44</ele><time>2015-11-18T10:51:05Z</time></trkpt><trkpt lat="51.9478451181" lon="-2.2113207355"><ele>42.44</ele><time>2015-11-18T10:51:28Z</time></trkpt><trkpt lat="51.9478856027" lon="-2.2113650758"><ele>40.51</ele><time>2015-11-18T10:51:46Z</time></trkpt><trkpt lat="51.9479772169" lon="-2.2115897108"><ele>39.07</ele><time>2015-11-18T10:52:00Z</time></trkpt><trkpt lat="51.9479924720" lon="-2.2118597757"><ele>37.63</ele><time>2015-11-18T10:52:17Z</time></trkpt><trkpt lat="51.9479925558" lon="-2.2119296808"><ele>37.63</ele><time>2015-11-18T10:52:33Z</time></trkpt><trkpt lat="51.9479693379" lon="-2.2121493705"><ele>38.11</ele><time>2015-11-18T10:52:45Z</time></trkpt><trkpt lat="51.9479321223" lon="-2.2122157551"><ele>37.63</ele><time>2015-11-18T10:52:53Z</time></trkpt><trkpt lat="51.9479021989" lon="-2.2123154160"><ele>37.63</ele><time>2015-11-18T10:53:00Z</time></trkpt><trkpt lat="51.9478648156" lon="-2.2123986483"><ele>38.11</ele><time>2015-11-18T10:53:06Z</time></trkpt><trkpt lat="51.9478439447" lon="-2.2124456707"><ele>39.07</ele><time>2015-11-18T10:53:09Z</time></trkpt><trkpt lat="51.9478177093" lon="-2.2124991473"><ele>39.07</ele><time>2015-11-18T10:53:13Z</time></trkpt><trkpt lat="51.9476677570" lon="-2.2127357684"><ele>38.59</ele><time>2015-11-18T10:53:28Z</time></trkpt><trkpt lat="51.9475223310" lon="-2.2129491717"><ele>39.07</ele><time>2015-11-18T10:53:44Z</time></trkpt><trkpt lat="51.9473593030" lon="-2.2130645066"><ele>38.11</ele><time>2015-11-18T10:54:01Z</time></trkpt><trkpt lat="51.9472830277" lon="-2.2131071705"><ele>36.19</ele><time>2015-11-18T10:54:16Z</time></trkpt><trkpt lat="51.9472668506" lon="-2.2131183185"><ele>34.26</ele><time>2015-11-18T10:54:21Z</time></trkpt><trkpt lat="51.9471786730" lon="-2.2131657600"><ele>30.90</ele><time>2015-11-18T10:54:35Z</time></trkpt><trkpt lat="51.9470803533" lon="-2.2131479904"><ele>30.90</ele><time>2015-11-18T10:54:48Z</time></trkpt><trkpt lat="51.9470319059" lon="-2.2131316457"><ele>31.38</ele><time>2015-11-18T10:55:02Z</time></trkpt><trkpt lat="51.9470313191" lon="-2.2131325677"><ele>27.53</ele><time>2015-11-18T10:55:03Z</time></trkpt><trkpt lat="51.9470296428" lon="-2.2131264489"><ele>28.02</ele><time>2015-11-18T10:55:04Z</time></trkpt><trkpt lat="51.9470296428" lon="-2.2131169774"><ele>31.38</ele><time>2015-11-18T10:55:05Z</time></trkpt><trkpt lat="51.9470301457" lon="-2.2131072544"><ele>27.53</ele><time>2015-11-18T10:55:06Z</time></trkpt><trkpt lat="51.9470304810" lon="-2.2130994592"><ele>32.82</ele><time>2015-11-18T10:55:07Z</time></trkpt><trkpt lat="51.9470174890" lon="-2.2130759060"><ele>30.42</ele><time>2015-11-18T10:55:22Z</time></trkpt><trkpt lat="51.9470095262" lon="-2.2130873054"><ele>32.34</ele><time>2015-11-18T10:55:42Z</time></trkpt><trkpt lat="51.9470065087" lon="-2.2130791750"><ele>30.42</ele><time>2015-11-18T10:56:07Z</time></trkpt><trkpt lat="51.9470087718" lon="-2.2130780853"><ele>32.82</ele><time>2015-11-18T10:56:10Z</time></trkpt><trkpt lat="51.9470027369" lon="-2.2131182346"><ele>31.38</ele><time>2015-11-18T10:56:28Z</time></trkpt><trkpt lat="51.9469999708" lon="-2.2131258622"><ele>29.94</ele><time>2015-11-18T10:56:40Z</time></trkpt><trkpt lat="51.9470028207" lon="-2.2131214198"><ele>31.38</ele><time>2015-11-18T10:56:48Z</time></trkpt><trkpt lat="51.9469653536" lon="-2.2131233476"><ele>31.86</ele><time>2015-11-18T10:57:06Z</time></trkpt><trkpt lat="51.9469628390" lon="-2.2131329868"><ele>31.86</ele><time>2015-11-18T10:57:26Z</time></trkpt><trkpt lat="51.9469963666" lon="-2.2131240182"><ele>30.42</ele><time>2015-11-18T10:57:33Z</time></trkpt><trkpt lat="51.9470069278" lon="-2.2131039016"><ele>30.90</ele><time>2015-11-18T10:57:53Z</time></trkpt><trkpt lat="51.9470070116" lon="-2.2130727209"><ele>32.34</ele><time>2015-11-18T10:58:17Z</time></trkpt><trkpt lat="51.9469756633" lon="-2.2130339127"><ele>30.90</ele><time>2015-11-18T10:58:38Z</time></trkpt><trkpt lat="51.9469846319" lon="-2.2130399477"><ele>29.46</ele><time>2015-11-18T10:58:51Z</time></trkpt><trkpt lat="51.9469942711" lon="-2.2130515985"><ele>32.82</ele><time>2015-11-18T10:58:58Z</time></trkpt><trkpt lat="51.9469947740" lon="-2.2130510956"><ele>32.34</ele><time>2015-11-18T10:58:59Z</time></trkpt><trkpt lat="51.9470036589" lon="-2.2130471561"><ele>31.38</ele><time>2015-11-18T10:59:28Z</time></trkpt><trkpt lat="51.9470038265" lon="-2.2130425461"><ele>31.38</ele><time>2015-11-18T10:59:55Z</time></trkpt><trkpt lat="51.9470075984" lon="-2.2130472399"><ele>30.42</ele><time>2015-11-18T11:00:20Z</time></trkpt><trkpt lat="51.9469956122" lon="-2.2130539455"><ele>32.34</ele><time>2015-11-18T11:00:24Z</time></trkpt><trkpt lat="51.9469854701" lon="-2.2130566277"><ele>31.38</ele><time>2015-11-18T11:00:37Z</time></trkpt><trkpt lat="51.9469858054" lon="-2.2130595613"><ele>28.98</ele><time>2015-11-18T11:00:44Z</time></trkpt><trkpt lat="51.9469841290" lon="-2.2130619921"><ele>30.42</ele><time>2015-11-18T11:00:47Z</time></trkpt><trkpt lat="51.9469888229" lon="-2.2130686976"><ele>31.86</ele><time>2015-11-18T11:01:10Z</time></trkpt><trkpt lat="51.9469948579" lon="-2.2130726371"><ele>29.46</ele><time>2015-11-18T11:01:14Z</time></trkpt><trkpt lat="51.9469962828" lon="-2.2130711284"><ele>30.42</ele><time>2015-11-18T11:01:16Z</time></trkpt><trkpt lat="51.9470025692" lon="-2.2130763251"><ele>31.38</ele><time>2015-11-18T11:01:38Z</time></trkpt><trkpt lat="51.9470056705" lon="-2.2130863834"><ele>31.38</ele><time>2015-11-18T11:02:05Z</time></trkpt><trkpt lat="51.9470032398" lon="-2.2130976152"><ele>31.38</ele><time>2015-11-18T11:02:29Z</time></trkpt><trkpt lat="51.9470074307" lon="-2.2130878922"><ele>30.90</ele><time>2015-11-18T11:02:47Z</time></trkpt><trkpt lat="51.9470143039" lon="-2.2130877245"><ele>31.38</ele><time>2015-11-18T11:03:05Z</time></trkpt><trkpt lat="51.9470201712" lon="-2.2130986210"><ele>30.42</ele><time>2015-11-18T11:03:17Z</time></trkpt><trkpt lat="51.9470173214" lon="-2.2131014708"><ele>31.38</ele><time>2015-11-18T11:03:39Z</time></trkpt><trkpt lat="51.9470250327" lon="-2.2130956035"><ele>38.59</ele><time>2015-11-18T11:03:43Z</time></trkpt><trkpt lat="51.9470252842" lon="-2.2130959388"><ele>31.86</ele><time>2015-11-18T11:03:44Z</time></trkpt><trkpt lat="51.9470220152" lon="-2.2130971961"><ele>33.30</ele><time>2015-11-18T11:03:49Z</time></trkpt><trkpt lat="51.9470200036" lon="-2.2130835336"><ele>32.82</ele><time>2015-11-18T11:04:08Z</time></trkpt><trkpt lat="51.9470191654" lon="-2.2130844556"><ele>32.82</ele><time>2015-11-18T11:04:30Z</time></trkpt><trkpt lat="51.9470081013" lon="-2.2130960226"><ele>33.30</ele><time>2015-11-18T11:04:56Z</time></trkpt><trkpt lat="51.9470052514" lon="-2.2130931728"><ele>32.34</ele><time>2015-11-18T11:05:19Z</time></trkpt><trkpt lat="51.9470074307" lon="-2.2130828630"><ele>32.34</ele><time>2015-11-18T11:05:46Z</time></trkpt><trkpt lat="51.9470084365" lon="-2.2130743135"><ele>32.82</ele><time>2015-11-18T11:06:06Z</time></trkpt><trkpt lat="51.9470092747" lon="-2.2130726371"><ele>33.78</ele><time>2015-11-18T11:06:15Z</time></trkpt><trkpt lat="51.9470106997" lon="-2.2130741458"><ele>33.78</ele><time>2015-11-18T11:06:43Z</time></trkpt><trkpt lat="51.9470038265" lon="-2.2130661830"><ele>32.82</ele><time>2015-11-18T11:07:09Z</time></trkpt><trkpt lat="51.9470004737" lon="-2.2130612377"><ele>33.30</ele><time>2015-11-18T11:07:29Z</time></trkpt><trkpt lat="51.9469865598" lon="-2.2130694520"><ele>32.82</ele><time>2015-11-18T11:07:38Z</time></trkpt><trkpt lat="51.9469811954" lon="-2.2130766604"><ele>32.82</ele><time>2015-11-18T11:07:44Z</time></trkpt><trkpt lat="51.9469599053" lon="-2.2131053265"><ele>29.94</ele><time>2015-11-18T11:07:56Z</time></trkpt><trkpt lat="51.9469444826" lon="-2.2131760698"><ele>28.50</ele><time>2015-11-18T11:08:02Z</time></trkpt><trkpt lat="51.9469163194" lon="-2.2132266127"><ele>30.90</ele><time>2015-11-18T11:08:10Z</time></trkpt><trkpt lat="51.9469050877" lon="-2.2132437956"><ele>28.02</ele><time>2015-11-18T11:08:12Z</time></trkpt><trkpt lat="51.9468951970" lon="-2.2132563684"><ele>26.57</ele><time>2015-11-18T11:08:14Z</time></trkpt><trkpt lat="51.9468741585" lon="-2.2133050673"><ele>26.09</ele><time>2015-11-18T11:08:18Z</time></trkpt><trkpt lat="51.9468601607" lon="-2.2133494914"><ele>25.13</ele><time>2015-11-18T11:08:21Z</time></trkpt><trkpt lat="51.9467758387" lon="-2.2134675086"><ele>25.61</ele><time>2015-11-18T11:08:36Z</time></trkpt><trkpt lat="51.9467866514" lon="-2.2134249285"><ele>24.17</ele><time>2015-11-18T11:09:04Z</time></trkpt><trkpt lat="51.9467967935" lon="-2.2134207375"><ele>23.69</ele><time>2015-11-18T11:09:31Z</time></trkpt><trkpt lat="51.9467428140" lon="-2.2134200670"><ele>20.81</ele><time>2015-11-18T11:09:48Z</time></trkpt><trkpt lat="51.9465692248" lon="-2.2134972643"><ele>19.84</ele><time>2015-11-18T11:10:04Z</time></trkpt><trkpt lat="51.9464804605" lon="-2.2135892138"><ele>18.88</ele><time>2015-11-18T11:10:18Z</time></trkpt><trkpt lat="51.9463413209" lon="-2.2137377411"><ele>18.40</ele><time>2015-11-18T11:10:36Z</time></trkpt><trkpt lat="51.9461930450" lon="-2.2139140964"><ele>17.44</ele><time>2015-11-18T11:10:54Z</time></trkpt><trkpt lat="51.9460997544" lon="-2.2140658088"><ele>16.48</ele><time>2015-11-18T11:11:11Z</time></trkpt><trkpt lat="51.9460121635" lon="-2.2142267413"><ele>16.00</ele><time>2015-11-18T11:11:26Z</time></trkpt><trkpt lat="51.9459787197" lon="-2.2144341934"><ele>14.08</ele><time>2015-11-18T11:11:42Z</time></trkpt><trkpt lat="51.9459746964" lon="-2.2147041745"><ele>15.52</ele><time>2015-11-18T11:12:01Z</time></trkpt><trkpt lat="51.9458882790" lon="-2.2149759158"><ele>14.08</ele><time>2015-11-18T11:12:22Z</time></trkpt><trkpt lat="51.9458537456" lon="-2.2150107007"><ele>13.60</ele><time>2015-11-18T11:12:25Z</time></trkpt><trkpt lat="51.9458017778" lon="-2.2151232697"><ele>15.04</ele><time>2015-11-18T11:12:41Z</time></trkpt><trkpt lat="51.9458131772" lon="-2.2151220124"><ele>13.60</ele><time>2015-11-18T11:13:00Z</time></trkpt><trkpt lat="51.9458077289" lon="-2.2151332442"><ele>13.60</ele><time>2015-11-18T11:13:04Z</time></trkpt><trkpt lat="51.9457512349" lon="-2.2153092641"><ele>15.04</ele><time>2015-11-18T11:13:20Z</time></trkpt><trkpt lat="51.9457334653" lon="-2.2152925842"><ele>14.08</ele><time>2015-11-18T11:13:34Z</time></trkpt><trkpt lat="51.9457334653" lon="-2.2153106052"><ele>14.56</ele><time>2015-11-18T11:13:50Z</time></trkpt><trkpt lat="51.9457063079" lon="-2.2152389400"><ele>15.52</ele><time>2015-11-18T11:14:06Z</time></trkpt><trkpt lat="51.9456231594" lon="-2.2150121257"><ele>16.00</ele><time>2015-11-18T11:14:23Z</time></trkpt><trkpt lat="51.9455544278" lon="-2.2147914302"><ele>17.44</ele><time>2015-11-18T11:14:40Z</time></trkpt><trkpt lat="51.9454891328" lon="-2.2146264743"><ele>17.92</ele><time>2015-11-18T11:14:49Z</time></trkpt><trkpt lat="51.9453178905" lon="-2.2145369556"><ele>18.88</ele><time>2015-11-18T11:15:06Z</time></trkpt><trkpt lat="51.9451660942" lon="-2.2146004904"><ele>19.84</ele><time>2015-11-18T11:15:23Z</time></trkpt><trkpt lat="51.9450647570" lon="-2.2146490216"><ele>20.81</ele><time>2015-11-18T11:15:37Z</time></trkpt><trkpt lat="51.9449565466" lon="-2.2147099581"><ele>21.77</ele><time>2015-11-18T11:15:51Z</time></trkpt><trkpt lat="51.9448366016" lon="-2.2147852276"><ele>22.73</ele><time>2015-11-18T11:16:07Z</time></trkpt><trkpt lat="51.9447585661" lon="-2.2148107085"><ele>23.69</ele><time>2015-11-18T11:16:17Z</time></trkpt><trkpt lat="51.9446556363" lon="-2.2148625087"><ele>26.09</ele><time>2015-11-18T11:16:30Z</time></trkpt><trkpt lat="51.9445144013" lon="-2.2149124648"><ele>25.13</ele><time>2015-11-18T11:16:48Z</time></trkpt><trkpt lat="51.9445042592" lon="-2.2149226069"><ele>26.57</ele><time>2015-11-18T11:17:09Z</time></trkpt><trkpt lat="51.9445068575" lon="-2.2149216849"><ele>25.61</ele><time>2015-11-18T11:17:31Z</time></trkpt><trkpt lat="51.9444988947" lon="-2.2149165720"><ele>26.57</ele><time>2015-11-18T11:17:55Z</time></trkpt><trkpt lat="51.9445040915" lon="-2.2148977965"><ele>26.09</ele><time>2015-11-18T11:18:26Z</time></trkpt><trkpt lat="51.9445351884" lon="-2.2148864809"><ele>25.61</ele><time>2015-11-18T11:18:46Z</time></trkpt><trkpt lat="51.9445365295" lon="-2.2148815356"><ele>26.09</ele><time>2015-11-18T11:19:10Z</time></trkpt><trkpt lat="51.9445361104" lon="-2.2148816194"><ele>26.09</ele><time>2015-11-18T11:19:28Z</time></trkpt><trkpt lat="51.9445357751" lon="-2.2148878220"><ele>26.09</ele><time>2015-11-18T11:20:04Z</time></trkpt><trkpt lat="51.9445134792" lon="-2.2148887441"><ele>26.09</ele><time>2015-11-18T11:20:20Z</time></trkpt><trkpt lat="51.9444451667" lon="-2.2148929350"><ele>26.09</ele><time>2015-11-18T11:20:25Z</time></trkpt><trkpt lat="51.9444159977" lon="-2.2148915101"><ele>28.02</ele><time>2015-11-18T11:20:27Z</time></trkpt><trkpt lat="51.9443097990" lon="-2.2148219403"><ele>28.50</ele><time>2015-11-18T11:20:39Z</time></trkpt><trkpt lat="51.9441786222" lon="-2.2147517838"><ele>32.34</ele><time>2015-11-18T11:20:54Z</time></trkpt><trkpt lat="51.9441489503" lon="-2.2147315834"><ele>34.26</ele><time>2015-11-18T11:20:58Z</time></trkpt><trkpt lat="51.9440344535" lon="-2.2146870755"><ele>35.23</ele><time>2015-11-18T11:21:11Z</time></trkpt><trkpt lat="51.9440026022" lon="-2.2146723233"><ele>34.26</ele><time>2015-11-18T11:21:15Z</time></trkpt><trkpt lat="51.9439557474" lon="-2.2146557271"><ele>35.23</ele><time>2015-11-18T11:21:20Z</time></trkpt><trkpt lat="51.9439111557" lon="-2.2146306653"><ele>37.63</ele><time>2015-11-18T11:21:28Z</time></trkpt><trkpt lat="51.9439190347" lon="-2.2146426514"><ele>37.63</ele><time>2015-11-18T11:21:45Z</time></trkpt><trkpt lat="51.9439198729" lon="-2.2146399692"><ele>39.07</ele><time>2015-11-18T11:21:52Z</time></trkpt><trkpt lat="51.9438941404" lon="-2.2146269772"><ele>36.19</ele><time>2015-11-18T11:21:55Z</time></trkpt><trkpt lat="51.9437670708" lon="-2.2145521268"><ele>36.67</ele><time>2015-11-18T11:22:08Z</time></trkpt><trkpt lat="51.9435989298" lon="-2.2144812997"><ele>36.19</ele><time>2015-11-18T11:22:24Z</time></trkpt><trkpt lat="51.9435507338" lon="-2.2144607641"><ele>37.15</ele><time>2015-11-18T11:22:30Z</time></trkpt><trkpt lat="51.9434623048" lon="-2.2144377977"><ele>36.67</ele><time>2015-11-18T11:22:39Z</time></trkpt><trkpt lat="51.9433933217" lon="-2.2143819742"><ele>36.19</ele><time>2015-11-18T11:22:50Z</time></trkpt><trkpt lat="51.9433918968" lon="-2.2143821418"><ele>34.74</ele><time>2015-11-18T11:23:06Z</time></trkpt><trkpt lat="51.9433909748" lon="-2.2143788729"><ele>34.26</ele><time>2015-11-18T11:23:29Z</time></trkpt><trkpt lat="51.9433898851" lon="-2.2143773641"><ele>35.71</ele><time>2015-11-18T11:23:33Z</time></trkpt><trkpt lat="51.9433895499" lon="-2.2143761907"><ele>36.67</ele><time>2015-11-18T11:23:53Z</time></trkpt><trkpt lat="51.9433858618" lon="-2.2143725865"><ele>35.71</ele><time>2015-11-18T11:24:15Z</time></trkpt><trkpt lat="51.9433853589" lon="-2.2143689822"><ele>35.23</ele><time>2015-11-18T11:24:46Z</time></trkpt><trkpt lat="51.9433844369" lon="-2.2143694013"><ele>35.23</ele><time>2015-11-18T11:24:58Z</time></trkpt><trkpt lat="51.9433830120" lon="-2.2143699881"><ele>35.71</ele><time>2015-11-18T11:25:16Z</time></trkpt><trkpt lat="51.9433829281" lon="-2.2143739276"><ele>35.71</ele><time>2015-11-18T11:25:42Z</time></trkpt><trkpt lat="51.9433829281" lon="-2.2143739276"><ele>36.19</ele><time>2015-11-18T11:25:43Z</time></trkpt><trkpt lat="51.9433810003" lon="-2.2143744305"><ele>34.74</ele><time>2015-11-18T11:26:01Z</time></trkpt><trkpt lat="51.9433763064" lon="-2.2143724188"><ele>33.78</ele><time>2015-11-18T11:26:23Z</time></trkpt><trkpt lat="51.9433664158" lon="-2.2143683955"><ele>32.34</ele><time>2015-11-18T11:26:37Z</time></trkpt><trkpt lat="51.9432946667" lon="-2.2144101374"><ele>32.82</ele><time>2015-11-18T11:26:50Z</time></trkpt><trkpt lat="51.9432354905" lon="-2.2144393064"><ele>33.30</ele><time>2015-11-18T11:26:57Z</time></trkpt><trkpt lat="51.9431971852" lon="-2.2144470178"><ele>32.82</ele><time>2015-11-18T11:27:00Z</time></trkpt><trkpt lat="51.9431359135" lon="-2.2144819703"><ele>32.82</ele><time>2015-11-18T11:27:06Z</time></trkpt><trkpt lat="51.9431004580" lon="-2.2145006619"><ele>33.30</ele><time>2015-11-18T11:27:09Z</time></trkpt><trkpt lat="51.9430146273" lon="-2.2145318426"><ele>33.30</ele><time>2015-11-18T11:27:16Z</time></trkpt><trkpt lat="51.9429814350" lon="-2.2145450022"><ele>32.34</ele><time>2015-11-18T11:27:30Z</time></trkpt><trkpt lat="51.9429729693" lon="-2.2145319264"><ele>32.82</ele><time>2015-11-18T11:27:47Z</time></trkpt><trkpt lat="51.9429705385" lon="-2.2145379614"><ele>32.34</ele><time>2015-11-18T11:28:09Z</time></trkpt><trkpt lat="51.9429717120" lon="-2.2145313397"><ele>33.30</ele><time>2015-11-18T11:28:35Z</time></trkpt><trkpt lat="51.9429227617" lon="-2.2145489417"><ele>33.78</ele><time>2015-11-18T11:28:54Z</time></trkpt><trkpt lat="51.9428295549" lon="-2.2146380413"><ele>32.82</ele><time>2015-11-18T11:29:05Z</time></trkpt><trkpt lat="51.9427412096" lon="-2.2147108801"><ele>32.82</ele><time>2015-11-18T11:29:16Z</time></trkpt><trkpt lat="51.9427152257" lon="-2.2147373669"><ele>31.86</ele><time>2015-11-18T11:29:19Z</time></trkpt><trkpt lat="51.9426276349" lon="-2.2148216888"><ele>32.34</ele><time>2015-11-18T11:29:29Z</time></trkpt><trkpt lat="51.9425838813" lon="-2.2148779314"><ele>32.82</ele><time>2015-11-18T11:29:34Z</time></trkpt><trkpt lat="51.9424657803" lon="-2.2150199208"><ele>33.30</ele><time>2015-11-18T11:29:48Z</time></trkpt><trkpt lat="51.9423966296" lon="-2.2150499281"><ele>32.82</ele><time>2015-11-18T11:29:59Z</time></trkpt><trkpt lat="51.9423527922" lon="-2.2150744870"><ele>32.34</ele><time>2015-11-18T11:30:12Z</time></trkpt><trkpt lat="51.9423172530" lon="-2.2150895745"><ele>30.90</ele><time>2015-11-18T11:30:16Z</time></trkpt><trkpt lat="51.9422771875" lon="-2.2151282988"><ele>30.42</ele><time>2015-11-18T11:30:21Z</time></trkpt><trkpt lat="51.9422141556" lon="-2.2151646763"><ele>31.86</ele><time>2015-11-18T11:30:26Z</time></trkpt><trkpt lat="51.9421404786" lon="-2.2153305542"><ele>32.34</ele><time>2015-11-18T11:30:37Z</time></trkpt><trkpt lat="51.9421277381" lon="-2.2153578792"><ele>31.86</ele><time>2015-11-18T11:30:39Z</time></trkpt><trkpt lat="51.9420124870" lon="-2.2153844498"><ele>29.94</ele><time>2015-11-18T11:30:50Z</time></trkpt><trkpt lat="51.9419367146" lon="-2.2153941728"><ele>29.94</ele><time>2015-11-18T11:30:57Z</time></trkpt><trkpt lat="51.9418975711" lon="-2.2153841984"><ele>29.46</ele><time>2015-11-18T11:31:00Z</time></trkpt><trkpt lat="51.9418182783" lon="-2.2153967712"><ele>29.46</ele><time>2015-11-18T11:31:07Z</time></trkpt><trkpt lat="51.9417233951" lon="-2.2154250182"><ele>28.02</ele><time>2015-11-18T11:31:16Z</time></trkpt><trkpt lat="51.9416703377" lon="-2.2154395189"><ele>28.98</ele><time>2015-11-18T11:31:21Z</time></trkpt><trkpt lat="51.9415968284" lon="-2.2154769022"><ele>28.98</ele><time>2015-11-18T11:31:30Z</time></trkpt><trkpt lat="51.9415638037" lon="-2.2154834401"><ele>28.02</ele><time>2015-11-18T11:31:34Z</time></trkpt><trkpt lat="51.9414638914" lon="-2.2154658381"><ele>27.53</ele><time>2015-11-18T11:31:46Z</time></trkpt><trkpt lat="51.9413573574" lon="-2.2153774090"><ele>26.09</ele><time>2015-11-18T11:31:59Z</time></trkpt><trkpt lat="51.9413074851" lon="-2.2153250221"><ele>26.09</ele><time>2015-11-18T11:32:05Z</time></trkpt><trkpt lat="51.9412477221" lon="-2.2152369283"><ele>26.09</ele><time>2015-11-18T11:32:19Z</time></trkpt><trkpt lat="51.9412457105" lon="-2.2152256966"><ele>26.09</ele><time>2015-11-18T11:32:35Z</time></trkpt><trkpt lat="51.9412013702" lon="-2.2151587252"><ele>24.65</ele><time>2015-11-18T11:32:47Z</time></trkpt><trkpt lat="51.9411120191" lon="-2.2149997205"><ele>25.13</ele><time>2015-11-18T11:32:59Z</time></trkpt><trkpt lat="51.9411020447" lon="-2.2149751615"><ele>24.17</ele><time>2015-11-18T11:33:01Z</time></trkpt><trkpt lat="51.9410017133" lon="-2.2148024105"><ele>23.69</ele><time>2015-11-18T11:33:15Z</time></trkpt><trkpt lat="51.9409909006" lon="-2.2147890832"><ele>23.69</ele><time>2015-11-18T11:33:16Z</time></trkpt><trkpt lat="51.9408735540" lon="-2.2146845609"><ele>20.32</ele><time>2015-11-18T11:33:27Z</time></trkpt><trkpt lat="51.9408629928" lon="-2.2146833874"><ele>21.77</ele><time>2015-11-18T11:33:28Z</time></trkpt><trkpt lat="51.9407457300" lon="-2.2146554757"><ele>21.77</ele><time>2015-11-18T11:33:38Z</time></trkpt><trkpt lat="51.9407122862" lon="-2.2146526258"><ele>21.77</ele><time>2015-11-18T11:33:41Z</time></trkpt><trkpt lat="51.9406194147" lon="-2.2146543860"><ele>21.29</ele><time>2015-11-18T11:33:50Z</time></trkpt><trkpt lat="51.9405366015" lon="-2.2146562301"><ele>20.32</ele><time>2015-11-18T11:33:58Z</time></trkpt><trkpt lat="51.9404925965" lon="-2.2146808729"><ele>21.29</ele><time>2015-11-18T11:34:03Z</time></trkpt><trkpt lat="51.9404315762" lon="-2.2146662045"><ele>21.29</ele><time>2015-11-18T11:34:10Z</time></trkpt><trkpt lat="51.9403962884" lon="-2.2146722395"><ele>20.32</ele><time>2015-11-18T11:34:14Z</time></trkpt><trkpt lat="51.9403592404" lon="-2.2146862373"><ele>19.36</ele><time>2015-11-18T11:34:18Z</time></trkpt><trkpt lat="51.9402879942" lon="-2.2146224510"><ele>20.32</ele><time>2015-11-18T11:34:31Z</time></trkpt><trkpt lat="51.9402790256" lon="-2.2146224510"><ele>19.36</ele><time>2015-11-18T11:34:32Z</time></trkpt><trkpt lat="51.9402589928" lon="-2.2146120574"><ele>19.84</ele><time>2015-11-18T11:34:34Z</time></trkpt><trkpt lat="51.9401245471" lon="-2.2145549767"><ele>18.88</ele><time>2015-11-18T11:34:46Z</time></trkpt><trkpt lat="51.9400377106" lon="-2.2145154979"><ele>19.36</ele><time>2015-11-18T11:34:58Z</time></trkpt><trkpt lat="51.9400258921" lon="-2.2145246342"><ele>18.40</ele><time>2015-11-18T11:35:01Z</time></trkpt><trkpt lat="51.9399579987" lon="-2.2144857422"><ele>15.52</ele><time>2015-11-18T11:35:11Z</time></trkpt><trkpt lat="51.9398901053" lon="-2.2144394740"><ele>18.88</ele><time>2015-11-18T11:35:19Z</time></trkpt><trkpt lat="51.9397748541" lon="-2.2143523023"><ele>17.44</ele><time>2015-11-18T11:35:31Z</time></trkpt><trkpt lat="51.9396407437" lon="-2.2142684832"><ele>18.40</ele><time>2015-11-18T11:35:44Z</time></trkpt><trkpt lat="51.9394922163" lon="-2.2141730972"><ele>16.48</ele><time>2015-11-18T11:35:57Z</time></trkpt><trkpt lat="51.9393742830" lon="-2.2141097300"><ele>16.96</ele><time>2015-11-18T11:36:08Z</time></trkpt><trkpt lat="51.9392571878" lon="-2.2140463628"><ele>16.48</ele><time>2015-11-18T11:36:20Z</time></trkpt><trkpt lat="51.9391317107" lon="-2.2139710095"><ele>15.52</ele><time>2015-11-18T11:36:33Z</time></trkpt><trkpt lat="51.9390952494" lon="-2.2139606159"><ele>16.96</ele><time>2015-11-18T11:36:43Z</time></trkpt><trkpt lat="51.9390800782" lon="-2.2139461152"><ele>16.48</ele><time>2015-11-18T11:36:54Z</time></trkpt><trkpt lat="51.9390797429" lon="-2.2139455285"><ele>16.48</ele><time>2015-11-18T11:36:55Z</time></trkpt><trkpt lat="51.9390780665" lon="-2.2139456961"><ele>15.04</ele><time>2015-11-18T11:36:58Z</time></trkpt><trkpt lat="51.9390809163" lon="-2.2139480431"><ele>13.60</ele><time>2015-11-18T11:37:08Z</time></trkpt><trkpt lat="51.9390818384" lon="-2.2139498871"><ele>14.08</ele><time>2015-11-18T11:37:15Z</time></trkpt><trkpt lat="51.9390812516" lon="-2.2139494680"><ele>15.52</ele><time>2015-11-18T11:37:21Z</time></trkpt><trkpt lat="51.9390984345" lon="-2.2139857616"><ele>16.00</ele><time>2015-11-18T11:37:30Z</time></trkpt><trkpt lat="51.9390937407" lon="-2.2139777988"><ele>16.96</ele><time>2015-11-18T11:37:36Z</time></trkpt><trkpt lat="51.9390507415" lon="-2.2139955685"><ele>12.63</ele><time>2015-11-18T11:37:40Z</time></trkpt><trkpt lat="51.9390285295" lon="-2.2140309401"><ele>14.56</ele><time>2015-11-18T11:37:43Z</time></trkpt><trkpt lat="51.9390182197" lon="-2.2140781302"><ele>12.15</ele><time>2015-11-18T11:37:47Z</time></trkpt><trkpt lat="51.9389994442" lon="-2.2142061219"><ele>13.60</ele><time>2015-11-18T11:37:56Z</time></trkpt><trkpt lat="51.9389937446" lon="-2.2142398171"><ele>10.23</ele><time>2015-11-18T11:38:00Z</time></trkpt><trkpt lat="51.9389867876" lon="-2.2142772004"><ele>12.63</ele><time>2015-11-18T11:38:03Z</time></trkpt><trkpt lat="51.9389808364" lon="-2.2142900247"><ele>13.60</ele><time>2015-11-18T11:38:04Z</time></trkpt><trkpt lat="51.9389557745" lon="-2.2143890150"><ele>12.63</ele><time>2015-11-18T11:38:10Z</time></trkpt><trkpt lat="51.9389508292" lon="-2.2144014202"><ele>13.12</ele><time>2015-11-18T11:38:11Z</time></trkpt><trkpt lat="51.9388817623" lon="-2.2146004904"><ele>13.60</ele><time>2015-11-18T11:38:22Z</time></trkpt><trkpt lat="51.9388623163" lon="-2.2146351915"><ele>13.12</ele><time>2015-11-18T11:38:24Z</time></trkpt><trkpt lat="51.9388254359" lon="-2.2148014884"><ele>13.60</ele><time>2015-11-18T11:38:33Z</time></trkpt><trkpt lat="51.9387938362" lon="-2.2149564698"><ele>12.15</ele><time>2015-11-18T11:38:41Z</time></trkpt><trkpt lat="51.9387622364" lon="-2.2152129561"><ele>11.67</ele><time>2015-11-18T11:38:53Z</time></trkpt><trkpt lat="51.9387246016" lon="-2.2154075839"><ele>10.71</ele><time>2015-11-18T11:39:04Z</time></trkpt><trkpt lat="51.9386852905" lon="-2.2155494057"><ele>10.71</ele><time>2015-11-18T11:39:12Z</time></trkpt><trkpt lat="51.9386621565" lon="-2.2155996971"><ele>12.15</ele><time>2015-11-18T11:39:15Z</time></trkpt><trkpt lat="51.9386316463" lon="-2.2156776488"><ele>12.15</ele><time>2015-11-18T11:39:20Z</time></trkpt><trkpt lat="51.9386189897" lon="-2.2157096677"><ele>13.60</ele><time>2015-11-18T11:39:22Z</time></trkpt><trkpt lat="51.9386095181" lon="-2.2157465480"><ele>13.12</ele><time>2015-11-18T11:39:24Z</time></trkpt><trkpt lat="51.9385863002" lon="-2.2158364858"><ele>13.60</ele><time>2015-11-18T11:39:29Z</time></trkpt><trkpt lat="51.9385677762" lon="-2.2158835921"><ele>13.12</ele><time>2015-11-18T11:39:32Z</time></trkpt><trkpt lat="51.9385258667" lon="-2.2159831692"><ele>11.67</ele><time>2015-11-18T11:39:38Z</time></trkpt><trkpt lat="51.9384465739" lon="-2.2162341233"><ele>13.12</ele><time>2015-11-18T11:39:54Z</time></trkpt><trkpt lat="51.9384342525" lon="-2.2162826546"><ele>11.19</ele><time>2015-11-18T11:39:57Z</time></trkpt><trkpt lat="51.9384143036" lon="-2.2163575888"><ele>9.27</ele><time>2015-11-18T11:40:02Z</time></trkpt><trkpt lat="51.9384073466" lon="-2.2163968999"><ele>11.67</ele><time>2015-11-18T11:40:04Z</time></trkpt><trkpt lat="51.9383614138" lon="-2.2166217864"><ele>12.15</ele><time>2015-11-18T11:40:17Z</time></trkpt><trkpt lat="51.9383213483" lon="-2.2168567311"><ele>12.15</ele><time>2015-11-18T11:40:29Z</time></trkpt><trkpt lat="51.9382985495" lon="-2.2170264646"><ele>12.63</ele><time>2015-11-18T11:40:39Z</time></trkpt><trkpt lat="51.9382971246" lon="-2.2170706373"><ele>11.67</ele><time>2015-11-18T11:40:42Z</time></trkpt><trkpt lat="51.9382699672" lon="-2.2173308115"><ele>13.60</ele><time>2015-11-18T11:40:57Z</time></trkpt><trkpt lat="51.9382596575" lon="-2.2175866272"><ele>13.12</ele><time>2015-11-18T11:41:11Z</time></trkpt><trkpt lat="51.9382547121" lon="-2.2176361643"><ele>13.60</ele><time>2015-11-18T11:41:13Z</time></trkpt><trkpt lat="51.9382840488" lon="-2.2179007810"><ele>12.63</ele><time>2015-11-18T11:41:28Z</time></trkpt><trkpt lat="51.9383358490" lon="-2.2181094065"><ele>13.60</ele><time>2015-11-18T11:41:40Z</time></trkpt><trkpt lat="51.9383569714" lon="-2.2182097379"><ele>13.12</ele><time>2015-11-18T11:41:46Z</time></trkpt><trkpt lat="51.9384132139" lon="-2.2183661442"><ele>11.67</ele><time>2015-11-18T11:41:58Z</time></trkpt><trkpt lat="51.9384756591" lon="-2.2185349558"><ele>13.60</ele><time>2015-11-18T11:42:09Z</time></trkpt><trkpt lat="51.9384987094" lon="-2.2187046055"><ele>14.08</ele><time>2015-11-18T11:42:17Z</time></trkpt><trkpt lat="51.9385541137" lon="-2.2188790329"><ele>13.12</ele><time>2015-11-18T11:42:30Z</time></trkpt><trkpt lat="51.9385868032" lon="-2.2189981397"><ele>12.15</ele><time>2015-11-18T11:42:37Z</time></trkpt><trkpt lat="51.9385943469" lon="-2.2190428153"><ele>12.63</ele><time>2015-11-18T11:42:40Z</time></trkpt><trkpt lat="51.9386503380" lon="-2.2193316557"><ele>13.12</ele><time>2015-11-18T11:42:55Z</time></trkpt><trkpt lat="51.9386541098" lon="-2.2193464078"><ele>13.12</ele><time>2015-11-18T11:42:56Z</time></trkpt><trkpt lat="51.9387522619" lon="-2.2195264511"><ele>12.63</ele><time>2015-11-18T11:43:08Z</time></trkpt><trkpt lat="51.9388214964" lon="-2.2197612282"><ele>13.12</ele><time>2015-11-18T11:43:23Z</time></trkpt><trkpt lat="51.9388372544" lon="-2.2198137827"><ele>13.12</ele><time>2015-11-18T11:43:36Z</time></trkpt><trkpt lat="51.9388383441" lon="-2.2198474780"><ele>13.12</ele><time>2015-11-18T11:43:49Z</time></trkpt><trkpt lat="51.9388559461" lon="-2.2198520042"><ele>13.12</ele><time>2015-11-18T11:44:05Z</time></trkpt><trkpt lat="51.9388522580" lon="-2.2198412754"><ele>12.63</ele><time>2015-11-18T11:44:22Z</time></trkpt><trkpt lat="51.9388505816" lon="-2.2198382579"><ele>12.63</ele><time>2015-11-18T11:44:45Z</time></trkpt><trkpt lat="51.9388326444" lon="-2.2198212426"><ele>11.67</ele><time>2015-11-18T11:45:04Z</time></trkpt><trkpt lat="51.9388277829" lon="-2.2198819276"><ele>13.60</ele><time>2015-11-18T11:45:14Z</time></trkpt><trkpt lat="51.9387541059" lon="-2.2199414391"><ele>12.15</ele><time>2015-11-18T11:45:25Z</time></trkpt><trkpt lat="51.9387237635" lon="-2.2199715301"><ele>12.15</ele><time>2015-11-18T11:45:29Z</time></trkpt><trkpt lat="51.9386422075" lon="-2.2199975140"><ele>12.15</ele><time>2015-11-18T11:45:36Z</time></trkpt><trkpt lat="51.9385049120" lon="-2.2200353164"><ele>12.15</ele><time>2015-11-18T11:45:46Z</time></trkpt><trkpt lat="51.9384443108" lon="-2.2200401779"><ele>12.15</ele><time>2015-11-18T11:45:53Z</time></trkpt><trkpt lat="51.9383888226" lon="-2.2200450394"><ele>12.15</ele><time>2015-11-18T11:45:59Z</time></trkpt><trkpt lat="51.9382111263" lon="-2.2200481407"><ele>12.15</ele><time>2015-11-18T11:46:14Z</time></trkpt><trkpt lat="51.9381748326" lon="-2.2200558521"><ele>12.63</ele><time>2015-11-18T11:46:17Z</time></trkpt><trkpt lat="51.9379998185" lon="-2.2200773098"><ele>12.15</ele><time>2015-11-18T11:46:32Z</time></trkpt><trkpt lat="51.9378619362" lon="-2.2201352287"><ele>12.63</ele><time>2015-11-18T11:46:44Z</time></trkpt><trkpt lat="51.9376864191" lon="-2.2201449517"><ele>12.15</ele><time>2015-11-18T11:47:00Z</time></trkpt><trkpt lat="51.9375383109" lon="-2.2201838437"><ele>11.67</ele><time>2015-11-18T11:47:13Z</time></trkpt><trkpt lat="51.9374424219" lon="-2.2202153597"><ele>11.67</ele><time>2015-11-18T11:47:21Z</time></trkpt><trkpt lat="51.9372947328" lon="-2.2202529944"><ele>12.15</ele><time>2015-11-18T11:47:35Z</time></trkpt><trkpt lat="51.9372167811" lon="-2.2202268429"><ele>12.15</ele><time>2015-11-18T11:47:46Z</time></trkpt><trkpt lat="51.9371307828" lon="-2.2202446964"><ele>12.63</ele><time>2015-11-18T11:48:00Z</time></trkpt><trkpt lat="51.9371269271" lon="-2.2202708479"><ele>13.12</ele><time>2015-11-18T11:48:19Z</time></trkpt><trkpt lat="51.9370963331" lon="-2.2202630527"><ele>13.60</ele><time>2015-11-18T11:48:35Z</time></trkpt><trkpt lat="51.9371017814" lon="-2.2202837560"><ele>14.08</ele><time>2015-11-18T11:48:53Z</time></trkpt><trkpt lat="51.9371310342" lon="-2.2202536650"><ele>13.12</ele><time>2015-11-18T11:48:58Z</time></trkpt><trkpt lat="51.9371760450" lon="-2.2201496456"><ele>13.12</ele><time>2015-11-18T11:49:10Z</time></trkpt><trkpt lat="51.9371716026" lon="-2.2201189678"><ele>13.12</ele><time>2015-11-18T11:49:26Z</time></trkpt><trkpt lat="51.9371942338" lon="-2.2200809978"><ele>13.12</ele><time>2015-11-18T11:49:42Z</time></trkpt><trkpt lat="51.9371926412" lon="-2.2200213186"><ele>13.12</ele><time>2015-11-18T11:50:02Z</time></trkpt><trkpt lat="51.9372109976" lon="-2.2199917305"><ele>13.12</ele><time>2015-11-18T11:50:23Z</time></trkpt><trkpt lat="51.9372235704" lon="-2.2199167963"><ele>13.12</ele><time>2015-11-18T11:50:35Z</time></trkpt><trkpt lat="51.9372208044" lon="-2.2198183089"><ele>13.60</ele><time>2015-11-18T11:50:49Z</time></trkpt><trkpt lat="51.9372177031" lon="-2.2196612321"><ele>14.56</ele><time>2015-11-18T11:50:58Z</time></trkpt><trkpt lat="51.9372058008" lon="-2.2193961963"><ele>13.12</ele><time>2015-11-18T11:51:15Z</time></trkpt><trkpt lat="51.9371548388" lon="-2.2191882413"><ele>13.12</ele><time>2015-11-18T11:51:28Z</time></trkpt><trkpt lat="51.9371227361" lon="-2.2190435696"><ele>13.12</ele><time>2015-11-18T11:51:41Z</time></trkpt><trkpt lat="51.9370842632" lon="-2.2188226227"><ele>12.15</ele><time>2015-11-18T11:51:53Z</time></trkpt><trkpt lat="51.9370766357" lon="-2.2187383845"><ele>13.60</ele><time>2015-11-18T11:51:58Z</time></trkpt><trkpt lat="51.9370478019" lon="-2.2185463551"><ele>13.60</ele><time>2015-11-18T11:52:11Z</time></trkpt><trkpt lat="51.9370419346" lon="-2.2184197046"><ele>13.12</ele><time>2015-11-18T11:52:24Z</time></trkpt><trkpt lat="51.9370372407" lon="-2.2181694210"><ele>13.12</ele><time>2015-11-18T11:52:40Z</time></trkpt><trkpt lat="51.9370601233" lon="-2.2179584485"><ele>12.63</ele><time>2015-11-18T11:52:52Z</time></trkpt><trkpt lat="51.9370930642" lon="-2.2177487332"><ele>12.15</ele><time>2015-11-18T11:53:06Z</time></trkpt><trkpt lat="51.9371338002" lon="-2.2175510041"><ele>12.15</ele><time>2015-11-18T11:53:19Z</time></trkpt><trkpt lat="51.9371703453" lon="-2.2173536941"><ele>12.15</ele><time>2015-11-18T11:53:33Z</time></trkpt><trkpt lat="51.9371783081" lon="-2.2171345074"><ele>11.19</ele><time>2015-11-18T11:53:47Z</time></trkpt><trkpt lat="51.9371856004" lon="-2.2169521172"><ele>11.19</ele><time>2015-11-18T11:54:02Z</time></trkpt><trkpt lat="51.9372063037" lon="-2.2164601833"><ele>11.19</ele><time>2015-11-18T11:54:18Z</time></trkpt><trkpt lat="51.9372451119" lon="-2.2162437625"><ele>11.67</ele><time>2015-11-18T11:54:32Z</time></trkpt><trkpt lat="51.9372389931" lon="-2.2161591053"><ele>12.15</ele><time>2015-11-18T11:54:37Z</time></trkpt><trkpt lat="51.9373112451" lon="-2.2159283515"><ele>12.63</ele><time>2015-11-18T11:54:51Z</time></trkpt><trkpt lat="51.9373567589" lon="-2.2157650720"><ele>11.19</ele><time>2015-11-18T11:55:04Z</time></trkpt><trkpt lat="51.9373811502" lon="-2.2155449633"><ele>10.23</ele><time>2015-11-18T11:55:18Z</time></trkpt><trkpt lat="51.9373925496" lon="-2.2153862100"><ele>10.71</ele><time>2015-11-18T11:55:31Z</time></trkpt><trkpt lat="51.9374369737" lon="-2.2152453940"><ele>10.71</ele><time>2015-11-18T11:55:43Z</time></trkpt><trkpt lat="51.9374520611" lon="-2.2152065020"><ele>10.23</ele><time>2015-11-18T11:55:56Z</time></trkpt><trkpt lat="51.9374554977" lon="-2.2151893191"><ele>11.19</ele><time>2015-11-18T11:56:16Z</time></trkpt><trkpt lat="51.9374850020" lon="-2.2151863016"><ele>10.71</ele><time>2015-11-18T11:56:31Z</time></trkpt><trkpt lat="51.9374976587" lon="-2.2151878104"><ele>9.75</ele><time>2015-11-18T11:56:44Z</time></trkpt><trkpt lat="51.9375133328" lon="-2.2151908278"><ele>11.19</ele><time>2015-11-18T11:57:04Z</time></trkpt><trkpt lat="51.9375559129" lon="-2.2150504310"><ele>11.19</ele><time>2015-11-18T11:57:16Z</time></trkpt><trkpt lat="51.9376039412" lon="-2.2148029972"><ele>10.23</ele><time>2015-11-18T11:57:30Z</time></trkpt><trkpt lat="51.9376098923" lon="-2.2147663683"><ele>9.75</ele><time>2015-11-18T11:57:32Z</time></trkpt><trkpt lat="51.9376990758" lon="-2.2145092115"><ele>11.19</ele><time>2015-11-18T11:57:48Z</time></trkpt><trkpt lat="51.9377608504" lon="-2.2142534796"><ele>10.23</ele><time>2015-11-18T11:58:03Z</time></trkpt><trkpt lat="51.9377660472" lon="-2.2142369673"><ele>9.75</ele><time>2015-11-18T11:58:04Z</time></trkpt><trkpt lat="51.9377735071" lon="-2.2141707502"><ele>10.23</ele><time>2015-11-18T11:58:07Z</time></trkpt><trkpt lat="51.9378402270" lon="-2.2139663994"><ele>9.75</ele><time>2015-11-18T11:58:20Z</time></trkpt><trkpt lat="51.9378757663" lon="-2.2137935646"><ele>10.71</ele><time>2015-11-18T11:58:30Z</time></trkpt><trkpt lat="51.9379243813" lon="-2.2135591228"><ele>10.23</ele><time>2015-11-18T11:58:43Z</time></trkpt><trkpt lat="51.9379651174" lon="-2.2133939154"><ele>9.75</ele><time>2015-11-18T11:58:57Z</time></trkpt><trkpt lat="51.9379874133" lon="-2.2131999582"><ele>10.23</ele><time>2015-11-18T11:59:09Z</time></trkpt><trkpt lat="51.9380183425" lon="-2.2129637562"><ele>10.23</ele><time>2015-11-18T11:59:22Z</time></trkpt><trkpt lat="51.9380995631" lon="-2.2127418872"><ele>10.71</ele><time>2015-11-18T11:59:34Z</time></trkpt><trkpt lat="51.9381340966" lon="-2.2125532944"><ele>9.75</ele><time>2015-11-18T11:59:45Z</time></trkpt><trkpt lat="51.9381752517" lon="-2.2122794576"><ele>10.23</ele><time>2015-11-18T11:59:58Z</time></trkpt><trkpt lat="51.9381943624" lon="-2.2121516336"><ele>9.75</ele><time>2015-11-18T12:00:15Z</time></trkpt><trkpt lat="51.9382428098" lon="-2.2119140066"><ele>10.23</ele><time>2015-11-18T12:00:29Z</time></trkpt><trkpt lat="51.9383209292" lon="-2.2117531579"><ele>11.19</ele><time>2015-11-18T12:00:42Z</time></trkpt><trkpt lat="51.9383670297" lon="-2.2115714382"><ele>11.19</ele><time>2015-11-18T12:00:55Z</time></trkpt><trkpt lat="51.9384124596" lon="-2.2114071529"><ele>10.71</ele><time>2015-11-18T12:01:08Z</time></trkpt><trkpt lat="51.9384759106" lon="-2.2112686001"><ele>11.19</ele><time>2015-11-18T12:01:24Z</time></trkpt><trkpt lat="51.9384971168" lon="-2.2111547738"><ele>10.23</ele><time>2015-11-18T12:01:36Z</time></trkpt><trkpt lat="51.9385291357" lon="-2.2110583819"><ele>10.23</ele><time>2015-11-18T12:01:49Z</time></trkpt><trkpt lat="51.9385591429" lon="-2.2110484075"><ele>10.71</ele><time>2015-11-18T12:02:10Z</time></trkpt><trkpt lat="51.9385704584" lon="-2.2110517602"><ele>10.71</ele><time>2015-11-18T12:02:32Z</time></trkpt><trkpt lat="51.9385718834" lon="-2.2110536881"><ele>6.39</ele><time>2015-11-18T12:02:40Z</time></trkpt><trkpt lat="51.9385705423" lon="-2.2110542748"><ele>11.19</ele><time>2015-11-18T12:02:41Z</time></trkpt><trkpt lat="51.9385750685" lon="-2.2110412829"><ele>10.71</ele><time>2015-11-18T12:03:06Z</time></trkpt><trkpt lat="51.9385820255" lon="-2.2110445518"><ele>11.19</ele><time>2015-11-18T12:03:24Z</time></trkpt><trkpt lat="51.9385811873" lon="-2.2110481560"><ele>11.67</ele><time>2015-11-18T12:03:48Z</time></trkpt><trkpt lat="51.9385839533" lon="-2.2110494971"><ele>12.15</ele><time>2015-11-18T12:04:14Z</time></trkpt><trkpt lat="51.9385904074" lon="-2.2110477369"><ele>13.12</ele><time>2015-11-18T12:04:36Z</time></trkpt><trkpt lat="51.9386030640" lon="-2.2109584697"><ele>12.15</ele><time>2015-11-18T12:04:48Z</time></trkpt><trkpt lat="51.9386283774" lon="-2.2108153906"><ele>13.12</ele><time>2015-11-18T12:05:02Z</time></trkpt><trkpt lat="51.9386655930" lon="-2.2106714733"><ele>12.63</ele><time>2015-11-18T12:05:16Z</time></trkpt><trkpt lat="51.9386917446" lon="-2.2105258796"><ele>11.67</ele><time>2015-11-18T12:05:27Z</time></trkpt><trkpt lat="51.9387241825" lon="-2.2104261350"><ele>12.15</ele><time>2015-11-18T12:05:35Z</time></trkpt><trkpt lat="51.9387352467" lon="-2.2103506979"><ele>12.15</ele><time>2015-11-18T12:05:39Z</time></trkpt><trkpt lat="51.9387646671" lon="-2.2102715727"><ele>13.60</ele><time>2015-11-18T12:05:45Z</time></trkpt><trkpt lat="51.9387904834" lon="-2.2100963071"><ele>12.15</ele><time>2015-11-18T12:06:00Z</time></trkpt><trkpt lat="51.9388110191" lon="-2.2099288367"><ele>12.15</ele><time>2015-11-18T12:06:13Z</time></trkpt><trkpt lat="51.9388409425" lon="-2.2098404076"><ele>11.19</ele><time>2015-11-18T12:06:25Z</time></trkpt><trkpt lat="51.9388543535" lon="-2.2096555866"><ele>11.19</ele><time>2015-11-18T12:06:38Z</time></trkpt><trkpt lat="51.9388983585" lon="-2.2095331270"><ele>11.67</ele><time>2015-11-18T12:06:52Z</time></trkpt><trkpt lat="51.9389216602" lon="-2.2093842644"><ele>12.15</ele><time>2015-11-18T12:07:02Z</time></trkpt><trkpt lat="51.9389870390" lon="-2.2091893852"><ele>10.71</ele><time>2015-11-18T12:07:16Z</time></trkpt><trkpt lat="51.9390112627" lon="-2.2091290355"><ele>12.15</ele><time>2015-11-18T12:07:22Z</time></trkpt><trkpt lat="51.9390369114" lon="-2.2090333980"><ele>11.19</ele><time>2015-11-18T12:07:34Z</time></trkpt><trkpt lat="51.9390596263" lon="-2.2088838648"><ele>11.67</ele><time>2015-11-18T12:07:49Z</time></trkpt><trkpt lat="51.9391151145" lon="-2.2086973675"><ele>11.67</ele><time>2015-11-18T12:08:03Z</time></trkpt><trkpt lat="51.9391531684" lon="-2.2085400391"><ele>12.15</ele><time>2015-11-18T12:08:14Z</time></trkpt><trkpt lat="51.9391931500" lon="-2.2083754186"><ele>12.15</ele><time>2015-11-18T12:08:28Z</time></trkpt><trkpt lat="51.9392269291" lon="-2.2082120553"><ele>11.67</ele><time>2015-11-18T12:08:39Z</time></trkpt><trkpt lat="51.9392475486" lon="-2.2080760170"><ele>12.15</ele><time>2015-11-18T12:08:51Z</time></trkpt><trkpt lat="51.9392729457" lon="-2.2079102229"><ele>14.08</ele><time>2015-11-18T12:09:03Z</time></trkpt><trkpt lat="51.9393008575" lon="-2.2077571694"><ele>11.67</ele><time>2015-11-18T12:09:15Z</time></trkpt><trkpt lat="51.9393297751" lon="-2.2076657228"><ele>11.67</ele><time>2015-11-18T12:09:32Z</time></trkpt><trkpt lat="51.9393509813" lon="-2.2075860109"><ele>11.67</ele><time>2015-11-18T12:09:44Z</time></trkpt><trkpt lat="51.9393545855" lon="-2.2075879388"><ele>11.19</ele><time>2015-11-18T12:10:03Z</time></trkpt><trkpt lat="51.9393699244" lon="-2.2075951472"><ele>10.71</ele><time>2015-11-18T12:10:33Z</time></trkpt><trkpt lat="51.9393778872" lon="-2.2075017728"><ele>10.71</ele><time>2015-11-18T12:10:48Z</time></trkpt><trkpt lat="51.9393803179" lon="-2.2074599471"><ele>10.71</ele><time>2015-11-18T12:10:51Z</time></trkpt><trkpt lat="51.9394116662" lon="-2.2073355597"><ele>10.71</ele><time>2015-11-18T12:10:58Z</time></trkpt><trkpt lat="51.9394427631" lon="-2.2072200570"><ele>11.19</ele><time>2015-11-18T12:11:05Z</time></trkpt><trkpt lat="51.9395032804" lon="-2.2070012894"><ele>9.75</ele><time>2015-11-18T12:11:17Z</time></trkpt><trkpt lat="51.9395352993" lon="-2.2068503313"><ele>10.71</ele><time>2015-11-18T12:11:25Z</time></trkpt><trkpt lat="51.9395582657" lon="-2.2067233454"><ele>10.71</ele><time>2015-11-18T12:11:32Z</time></trkpt><trkpt lat="51.9395648036" lon="-2.2066535242"><ele>11.19</ele><time>2015-11-18T12:11:36Z</time></trkpt><trkpt lat="51.9396084733" lon="-2.2065495886"><ele>9.75</ele><time>2015-11-18T12:11:43Z</time></trkpt><trkpt lat="51.9396468624" lon="-2.2063708026"><ele>11.67</ele><time>2015-11-18T12:11:56Z</time></trkpt><trkpt lat="51.9396810606" lon="-2.2062225267"><ele>10.23</ele><time>2015-11-18T12:12:08Z</time></trkpt><trkpt lat="51.9397461880" lon="-2.2060528770"><ele>10.71</ele><time>2015-11-18T12:12:20Z</time></trkpt><trkpt lat="51.9397739321" lon="-2.2058855742"><ele>10.71</ele><time>2015-11-18T12:12:31Z</time></trkpt><trkpt lat="51.9398152549" lon="-2.2057373822"><ele>10.23</ele><time>2015-11-18T12:12:45Z</time></trkpt><trkpt lat="51.9398399815" lon="-2.2055737674"><ele>10.23</ele><time>2015-11-18T12:12:58Z</time></trkpt><trkpt lat="51.9398474414" lon="-2.2055479512"><ele>11.19</ele><time>2015-11-18T12:13:13Z</time></trkpt><trkpt lat="51.9398673065" lon="-2.2054641321"><ele>10.23</ele><time>2015-11-18T12:13:29Z</time></trkpt><trkpt lat="51.9399007503" lon="-2.2052993439"><ele>10.71</ele><time>2015-11-18T12:13:43Z</time></trkpt><trkpt lat="51.9399284944" lon="-2.2051404230"><ele>10.71</ele><time>2015-11-18T12:13:56Z</time></trkpt><trkpt lat="51.9399456773" lon="-2.2049915604"><ele>10.23</ele><time>2015-11-18T12:14:10Z</time></trkpt><trkpt lat="51.9399568252" lon="-2.2048546840"><ele>11.19</ele><time>2015-11-18T12:14:21Z</time></trkpt><trkpt lat="51.9399695657" lon="-2.2047545202"><ele>10.23</ele><time>2015-11-18T12:14:35Z</time></trkpt><trkpt lat="51.9399695657" lon="-2.2046074178"><ele>11.19</ele><time>2015-11-18T12:14:50Z</time></trkpt><trkpt lat="51.9399635307" lon="-2.2045349982"><ele>10.71</ele><time>2015-11-18T12:14:57Z</time></trkpt><trkpt lat="51.9399583340" lon="-2.2043883987"><ele>11.19</ele><time>2015-11-18T12:15:08Z</time></trkpt><trkpt lat="51.9399350323" lon="-2.2042652685"><ele>11.19</ele><time>2015-11-18T12:15:22Z</time></trkpt><trkpt lat="51.9399148319" lon="-2.2041386180"><ele>10.71</ele><time>2015-11-18T12:15:30Z</time></trkpt><trkpt lat="51.9399010018" lon="-2.2040189244"><ele>11.19</ele><time>2015-11-18T12:15:39Z</time></trkpt><trkpt lat="51.9398894347" lon="-2.2039159946"><ele>11.67</ele><time>2015-11-18T12:15:46Z</time></trkpt><trkpt lat="51.9398736767" lon="-2.2037512064"><ele>12.15</ele><time>2015-11-18T12:15:59Z</time></trkpt><trkpt lat="51.9398683961" lon="-2.2036450077"><ele>12.15</ele><time>2015-11-18T12:16:11Z</time></trkpt><trkpt lat="51.9398466870" lon="-2.2034695745"><ele>11.67</ele><time>2015-11-18T12:16:25Z</time></trkpt><trkpt lat="51.9398243073" lon="-2.2033056244"><ele>11.19</ele><time>2015-11-18T12:16:39Z</time></trkpt><trkpt lat="51.9398116507" lon="-2.2032202128"><ele>12.63</ele><time>2015-11-18T12:16:54Z</time></trkpt><trkpt lat="51.9397803862" lon="-2.2030487191"><ele>12.63</ele><time>2015-11-18T12:17:07Z</time></trkpt><trkpt lat="51.9397426676" lon="-2.2028675023"><ele>12.63</ele><time>2015-11-18T12:17:20Z</time></trkpt><trkpt lat="51.9397300109" lon="-2.2027690150"><ele>12.63</ele><time>2015-11-18T12:17:33Z</time></trkpt><trkpt lat="51.9397209585" lon="-2.2026870400"><ele>13.12</ele><time>2015-11-18T12:17:47Z</time></trkpt><trkpt lat="51.9396900292" lon="-2.2024239320"><ele>12.15</ele><time>2015-11-18T12:18:03Z</time></trkpt><trkpt lat="51.9396652188" lon="-2.2022591438"><ele>11.67</ele><time>2015-11-18T12:18:16Z</time></trkpt><trkpt lat="51.9396549929" lon="-2.2022262868"><ele>12.15</ele><time>2015-11-18T12:18:36Z</time></trkpt><trkpt lat="51.9396842457" lon="-2.2021964472"><ele>11.67</ele><time>2015-11-18T12:18:52Z</time></trkpt><trkpt lat="51.9396971539" lon="-2.2021816112"><ele>11.19</ele><time>2015-11-18T12:19:10Z</time></trkpt><trkpt lat="51.9397306815" lon="-2.2021887358"><ele>12.15</ele><time>2015-11-18T12:19:31Z</time></trkpt><trkpt lat="51.9397441763" lon="-2.2021937650"><ele>10.23</ele><time>2015-11-18T12:19:48Z</time></trkpt><trkpt lat="51.9397808053" lon="-2.2022065055"><ele>11.67</ele><time>2015-11-18T12:20:11Z</time></trkpt><trkpt lat="51.9398355391" lon="-2.2022403684"><ele>11.67</ele><time>2015-11-18T12:20:30Z</time></trkpt><trkpt lat="51.9399155024" lon="-2.2022734769"><ele>10.71</ele><time>2015-11-18T12:20:47Z</time></trkpt><trkpt lat="51.9399473537" lon="-2.2022829484"><ele>11.67</ele><time>2015-11-18T12:21:10Z</time></trkpt><trkpt lat="51.9399926160" lon="-2.2023056634"><ele>11.67</ele><time>2015-11-18T12:21:25Z</time></trkpt><trkpt lat="51.9400573242" lon="-2.2023231816"><ele>10.23</ele><time>2015-11-18T12:21:33Z</time></trkpt><trkpt lat="51.9401888363" lon="-2.2023987025"><ele>10.71</ele><time>2015-11-18T12:21:52Z</time></trkpt><trkpt lat="51.9403040037" lon="-2.2024523467"><ele>11.19</ele><time>2015-11-18T12:22:06Z</time></trkpt><trkpt lat="51.9404185005" lon="-2.2025395185"><ele>10.71</ele><time>2015-11-18T12:22:22Z</time></trkpt><trkpt lat="51.9404968712" lon="-2.2025536839"><ele>11.19</ele><time>2015-11-18T12:22:34Z</time></trkpt><trkpt lat="51.9406251982" lon="-2.2025888041"><ele>11.19</ele><time>2015-11-18T12:22:49Z</time></trkpt><trkpt lat="51.9407490827" lon="-2.2025831882"><ele>11.67</ele><time>2015-11-18T12:23:06Z</time></trkpt><trkpt lat="51.9408156350" lon="-2.2025697771"><ele>12.15</ele><time>2015-11-18T12:23:20Z</time></trkpt><trkpt lat="51.9408790022" lon="-2.2025717050"><ele>12.15</ele><time>2015-11-18T12:23:37Z</time></trkpt><trkpt lat="51.9409101829" lon="-2.2025841940"><ele>12.15</ele><time>2015-11-18T12:24:01Z</time></trkpt><trkpt lat="51.9409239292" lon="-2.2025847808"><ele>12.63</ele><time>2015-11-18T12:24:24Z</time></trkpt><trkpt lat="51.9409457222" lon="-2.2025792487"><ele>12.15</ele><time>2015-11-18T12:24:45Z</time></trkpt><trkpt lat="51.9409752265" lon="-2.2025647480"><ele>12.15</ele><time>2015-11-18T12:25:06Z</time></trkpt><trkpt lat="51.9410077482" lon="-2.2025499959"><ele>12.15</ele><time>2015-11-18T12:25:19Z</time></trkpt><trkpt lat="51.9410088379" lon="-2.2025387641"><ele>13.12</ele><time>2015-11-18T12:25:29Z</time></trkpt><trkpt lat="51.9410210755" lon="-2.2025283705"><ele>12.63</ele><time>2015-11-18T12:25:45Z</time></trkpt><trkpt lat="51.9410747197" lon="-2.2025188152"><ele>12.15</ele><time>2015-11-18T12:26:02Z</time></trkpt><trkpt lat="51.9411529228" lon="-2.2025198210"><ele>12.63</ele><time>2015-11-18T12:26:22Z</time></trkpt><trkpt lat="51.9413206447" lon="-2.2025157977"><ele>12.63</ele><time>2015-11-18T12:26:35Z</time></trkpt><trkpt lat="51.9413788151" lon="-2.2025090922"><ele>13.12</ele><time>2015-11-18T12:26:49Z</time></trkpt><trkpt lat="51.9413883705" lon="-2.2024949268"><ele>13.60</ele><time>2015-11-18T12:26:55Z</time></trkpt><trkpt lat="51.9414376561" lon="-2.2023609001"><ele>12.63</ele><time>2015-11-18T12:27:07Z</time></trkpt><trkpt lat="51.9415371493" lon="-2.2022091877"><ele>13.12</ele><time>2015-11-18T12:27:21Z</time></trkpt><trkpt lat="51.9416001812" lon="-2.2020665277"><ele>12.15</ele><time>2015-11-18T12:27:34Z</time></trkpt><trkpt lat="51.9416441023" lon="-2.2019599937"><ele>11.67</ele><time>2015-11-18T12:27:44Z</time></trkpt><trkpt lat="51.9417109899" lon="-2.2017952893"><ele>12.63</ele><time>2015-11-18T12:27:56Z</time></trkpt><trkpt lat="51.9418020174" lon="-2.2016797028"><ele>13.12</ele><time>2015-11-18T12:28:10Z</time></trkpt><trkpt lat="51.9418301806" lon="-2.2016573232"><ele>13.60</ele><time>2015-11-18T12:28:20Z</time></trkpt><trkpt lat="51.9418632053" lon="-2.2016658727"><ele>14.08</ele><time>2015-11-18T12:28:34Z</time></trkpt><trkpt lat="51.9420526363" lon="-2.2016893420"><ele>13.60</ele><time>2015-11-18T12:28:48Z</time></trkpt><trkpt lat="51.9422853179" lon="-2.2017597500"><ele>13.60</ele><time>2015-11-18T12:29:05Z</time></trkpt><trkpt lat="51.9423843082" lon="-2.2017788608"><ele>15.04</ele><time>2015-11-18T12:29:23Z</time></trkpt><trkpt lat="51.9425419718" lon="-2.2018186748"><ele>14.56</ele><time>2015-11-18T12:29:39Z</time></trkpt><trkpt lat="51.9426587317" lon="-2.2019021586"><ele>15.52</ele><time>2015-11-18T12:29:55Z</time></trkpt><trkpt lat="51.9427479990" lon="-2.2019216884"><ele>15.52</ele><time>2015-11-18T12:30:10Z</time></trkpt><trkpt lat="51.9428743981" lon="-2.2019739915"><ele>16.48</ele><time>2015-11-18T12:30:22Z</time></trkpt><trkpt lat="51.9431029726" lon="-2.2020221874"><ele>17.92</ele><time>2015-11-18T12:30:37Z</time></trkpt><trkpt lat="51.9432240911" lon="-2.2020662762"><ele>18.40</ele><time>2015-11-18T12:30:52Z</time></trkpt><trkpt lat="51.9433671702" lon="-2.2021425515"><ele>17.44</ele><time>2015-11-18T12:31:06Z</time></trkpt><trkpt lat="51.9434578624" lon="-2.2021710500"><ele>17.92</ele><time>2015-11-18T12:31:19Z</time></trkpt><trkpt lat="51.9435375743" lon="-2.2021774203"><ele>18.40</ele><time>2015-11-18T12:31:34Z</time></trkpt><trkpt lat="51.9435742032" lon="-2.2021894064"><ele>18.88</ele><time>2015-11-18T12:31:51Z</time></trkpt><trkpt lat="51.9437306933" lon="-2.2022298072"><ele>20.81</ele><time>2015-11-18T12:32:06Z</time></trkpt><trkpt lat="51.9438129198" lon="-2.2022619937"><ele>20.81</ele><time>2015-11-18T12:32:13Z</time></trkpt><trkpt lat="51.9439822342" lon="-2.2023432143"><ele>22.25</ele><time>2015-11-18T12:32:26Z</time></trkpt><trkpt lat="51.9440598506" lon="-2.2023142129"><ele>22.73</ele><time>2015-11-18T12:32:31Z</time></trkpt><trkpt lat="51.9441383891" lon="-2.2022362612"><ele>25.13</ele><time>2015-11-18T12:32:49Z</time></trkpt><trkpt lat="51.9441311806" lon="-2.2022200841"><ele>23.69</ele><time>2015-11-18T12:33:00Z</time></trkpt><trkpt lat="51.9441395625" lon="-2.2021391988"><ele>23.69</ele><time>2015-11-18T12:33:11Z</time></trkpt><trkpt lat="51.9441953022" lon="-2.2019781824"><ele>23.69</ele><time>2015-11-18T12:33:25Z</time></trkpt><trkpt lat="51.9442841504" lon="-2.2018149868"><ele>23.21</ele><time>2015-11-18T12:33:38Z</time></trkpt><trkpt lat="51.9442989025" lon="-2.2018025815"><ele>25.13</ele><time>2015-11-18T12:33:40Z</time></trkpt><trkpt lat="51.9443277363" lon="-2.2017200198"><ele>24.65</ele><time>2015-11-18T12:33:49Z</time></trkpt><trkpt lat="51.9443715736" lon="-2.2016804572"><ele>25.61</ele><time>2015-11-18T12:33:54Z</time></trkpt><trkpt lat="51.9444391318" lon="-2.2015725821"><ele>23.69</ele><time>2015-11-18T12:34:03Z</time></trkpt><trkpt lat="51.9445397984" lon="-2.2014748491"><ele>24.17</ele><time>2015-11-18T12:34:15Z</time></trkpt><trkpt lat="51.9445712306" lon="-2.2014390584"><ele>23.69</ele><time>2015-11-18T12:34:21Z</time></trkpt><trkpt lat="51.9446095359" lon="-2.2013942990"><ele>25.13</ele><time>2015-11-18T12:34:25Z</time></trkpt><trkpt lat="51.9447082747" lon="-2.2012595180"><ele>25.61</ele><time>2015-11-18T12:34:38Z</time></trkpt><trkpt lat="51.9448153954" lon="-2.2011054587"><ele>25.61</ele><time>2015-11-18T12:34:52Z</time></trkpt><trkpt lat="51.9448697101" lon="-2.2010403313"><ele>25.61</ele><time>2015-11-18T12:34:59Z</time></trkpt><trkpt lat="51.9449395314" lon="-2.2010020260"><ele>26.57</ele><time>2015-11-18T12:35:12Z</time></trkpt><trkpt lat="51.9449607376" lon="-2.2009803168"><ele>26.57</ele><time>2015-11-18T12:35:14Z</time></trkpt><trkpt lat="51.9450916629" lon="-2.2008478828"><ele>26.57</ele><time>2015-11-18T12:35:30Z</time></trkpt><trkpt lat="51.9451846182" lon="-2.2007374093"><ele>28.02</ele><time>2015-11-18T12:35:41Z</time></trkpt><trkpt lat="51.9452505838" lon="-2.2006592061"><ele>27.53</ele><time>2015-11-18T12:35:49Z</time></trkpt><trkpt lat="51.9453077484" lon="-2.2005969286"><ele>28.02</ele><time>2015-11-18T12:35:56Z</time></trkpt><trkpt lat="51.9453851972" lon="-2.2004883830"><ele>28.02</ele><time>2015-11-18T12:36:08Z</time></trkpt><trkpt lat="51.9454353210" lon="-2.2004453838"><ele>28.02</ele><time>2015-11-18T12:36:15Z</time></trkpt><trkpt lat="51.9454614725" lon="-2.2004147898"><ele>28.02</ele><time>2015-11-18T12:36:18Z</time></trkpt><trkpt lat="51.9456342235" lon="-2.2002552822"><ele>27.53</ele><time>2015-11-18T12:36:36Z</time></trkpt><trkpt lat="51.9457343034" lon="-2.2001310624"><ele>28.50</ele><time>2015-11-18T12:36:49Z</time></trkpt><trkpt lat="51.9458588585" lon="-2.1999717224"><ele>28.98</ele><time>2015-11-18T12:37:06Z</time></trkpt><trkpt lat="51.9459638838" lon="-2.1998566389"><ele>29.94</ele><time>2015-11-18T12:37:19Z</time></trkpt><trkpt lat="51.9460967369" lon="-2.1997089498"><ele>30.90</ele><time>2015-11-18T12:37:37Z</time></trkpt><trkpt lat="51.9461031910" lon="-2.1997017413"><ele>30.90</ele><time>2015-11-18T12:37:38Z</time></trkpt><trkpt lat="51.9462222140" lon="-2.1995180938"><ele>31.38</ele><time>2015-11-18T12:37:55Z</time></trkpt><trkpt lat="51.9462439232" lon="-2.1994853206"><ele>31.86</ele><time>2015-11-18T12:37:58Z</time></trkpt><trkpt lat="51.9463346992" lon="-2.1993816365"><ele>32.34</ele><time>2015-11-18T12:38:09Z</time></trkpt><trkpt lat="51.9464289956" lon="-2.1993019246"><ele>33.30</ele><time>2015-11-18T12:38:19Z</time></trkpt><trkpt lat="51.9465166703" lon="-2.1991938818"><ele>33.30</ele><time>2015-11-18T12:38:35Z</time></trkpt><trkpt lat="51.9465503655" lon="-2.1991772018"><ele>32.34</ele><time>2015-11-18T12:38:37Z</time></trkpt><trkpt lat="51.9465917721" lon="-2.1991377231"><ele>33.78</ele><time>2015-11-18T12:38:40Z</time></trkpt><trkpt lat="51.9467071909" lon="-2.1989441011"><ele>34.26</ele><time>2015-11-18T12:38:55Z</time></trkpt><trkpt lat="51.9467961229" lon="-2.1988394950"><ele>35.71</ele><time>2015-11-18T12:39:07Z</time></trkpt><trkpt lat="51.9469176605" lon="-2.1986884531"><ele>36.67</ele><time>2015-11-18T12:39:22Z</time></trkpt><trkpt lat="51.9470347557" lon="-2.1985539235"><ele>37.63</ele><time>2015-11-18T12:39:35Z</time></trkpt><trkpt lat="51.9471708778" lon="-2.1984006185"><ele>37.63</ele><time>2015-11-18T12:39:51Z</time></trkpt><trkpt lat="51.9472162239" lon="-2.1983426157"><ele>37.63</ele><time>2015-11-18T12:40:04Z</time></trkpt><trkpt lat="51.9472173136" lon="-2.1983437054"><ele>36.19</ele><time>2015-11-18T12:40:06Z</time></trkpt><trkpt lat="51.9472241867" lon="-2.1983351558"><ele>38.59</ele><time>2015-11-18T12:40:09Z</time></trkpt><trkpt lat="51.9472299702" lon="-2.1983354911"><ele>37.15</ele><time>2015-11-18T12:40:13Z</time></trkpt><trkpt lat="51.9472804293" lon="-2.1982679330"><ele>37.63</ele><time>2015-11-18T12:40:18Z</time></trkpt><trkpt lat="51.9474524260" lon="-2.1981329843"><ele>38.11</ele><time>2015-11-18T12:40:32Z</time></trkpt><trkpt lat="51.9475293718" lon="-2.1980548650"><ele>38.11</ele><time>2015-11-18T12:40:40Z</time></trkpt><trkpt lat="51.9475525897" lon="-2.1979991253"><ele>37.15</ele><time>2015-11-18T12:40:43Z</time></trkpt><trkpt lat="51.9475701079" lon="-2.1979721356"><ele>37.15</ele><time>2015-11-18T12:40:45Z</time></trkpt><trkpt lat="51.9477046374" lon="-2.1977991331"><ele>36.19</ele><time>2015-11-18T12:40:58Z</time></trkpt><trkpt lat="51.9478208944" lon="-2.1976454090"><ele>36.19</ele><time>2015-11-18T12:41:11Z</time></trkpt><trkpt lat="51.9478355628" lon="-2.1976227779"><ele>36.19</ele><time>2015-11-18T12:41:13Z</time></trkpt><trkpt lat="51.9478599541" lon="-2.1975972131"><ele>36.67</ele><time>2015-11-18T12:41:16Z</time></trkpt><trkpt lat="51.9479503110" lon="-2.1974922717"><ele>36.67</ele><time>2015-11-18T12:41:26Z</time></trkpt><trkpt lat="51.9479645602" lon="-2.1974646114"><ele>35.71</ele><time>2015-11-18T12:41:28Z</time></trkpt><trkpt lat="51.9479912985" lon="-2.1974268928"><ele>35.71</ele><time>2015-11-18T12:41:32Z</time></trkpt><trkpt lat="51.9480963238" lon="-2.1972972248"><ele>35.71</ele><time>2015-11-18T12:41:46Z</time></trkpt><trkpt lat="51.9481111597" lon="-2.1972780302"><ele>35.23</ele><time>2015-11-18T12:41:48Z</time></trkpt><trkpt lat="51.9482395705" lon="-2.1971319336"><ele>36.19</ele><time>2015-11-18T12:42:03Z</time></trkpt><trkpt lat="51.9483829010" lon="-2.1969640441"><ele>36.67</ele><time>2015-11-18T12:42:19Z</time></trkpt><trkpt lat="51.9484028500" lon="-2.1969455201"><ele>37.63</ele><time>2015-11-18T12:42:21Z</time></trkpt><trkpt lat="51.9485348649" lon="-2.1967808995"><ele>36.67</ele><time>2015-11-18T12:42:36Z</time></trkpt><trkpt lat="51.9486223720" lon="-2.1966120880"><ele>37.15</ele><time>2015-11-18T12:42:50Z</time></trkpt><trkpt lat="51.9486439135" lon="-2.1965803206"><ele>37.63</ele><time>2015-11-18T12:42:59Z</time></trkpt><trkpt lat="51.9486987311" lon="-2.1964996029"><ele>37.15</ele><time>2015-11-18T12:43:07Z</time></trkpt><trkpt lat="51.9488088693" lon="-2.1963115968"><ele>37.15</ele><time>2015-11-18T12:43:23Z</time></trkpt><trkpt lat="51.9488423131" lon="-2.1962364949"><ele>38.59</ele><time>2015-11-18T12:43:28Z</time></trkpt><trkpt lat="51.9488663692" lon="-2.1962084156"><ele>37.15</ele><time>2015-11-18T12:43:31Z</time></trkpt><trkpt lat="51.9489256293" lon="-2.1961165499"><ele>36.67</ele><time>2015-11-18T12:43:38Z</time></trkpt><trkpt lat="51.9489752501" lon="-2.1960328985"><ele>36.67</ele><time>2015-11-18T12:43:45Z</time></trkpt><trkpt lat="51.9489960372" lon="-2.1959922463"><ele>37.15</ele><time>2015-11-18T12:43:48Z</time></trkpt><trkpt lat="51.9491131324" lon="-2.1958788391"><ele>35.71</ele><time>2015-11-18T12:44:01Z</time></trkpt><trkpt lat="51.9491587300" lon="-2.1956804395"><ele>35.23</ele><time>2015-11-18T12:44:14Z</time></trkpt><trkpt lat="51.9491887372" lon="-2.1954924334"><ele>34.74</ele><time>2015-11-18T12:44:26Z</time></trkpt><trkpt lat="51.9492367655" lon="-2.1954123024"><ele>31.38</ele><time>2015-11-18T12:44:36Z</time></trkpt><trkpt lat="51.9492443092" lon="-2.1953778528"><ele>32.34</ele><time>2015-11-18T12:44:39Z</time></trkpt><trkpt lat="51.9492302276" lon="-2.1952772699"><ele>33.78</ele><time>2015-11-18T12:44:45Z</time></trkpt><trkpt lat="51.9492270425" lon="-2.1951952949"><ele>31.86</ele><time>2015-11-18T12:44:59Z</time></trkpt><trkpt lat="51.9492277969" lon="-2.1951465122"><ele>33.30</ele><time>2015-11-18T12:45:11Z</time></trkpt><trkpt lat="51.9492322393" lon="-2.1951542236"><ele>32.34</ele><time>2015-11-18T12:45:23Z</time></trkpt></trkseg></trk></gpx>